Observation data for McCamey on 05/25/2020      Previous  Date       Current Mesonet Observations  Soil Data  Daily Summary Page  Observations in Plain Language
KMC4 250500Z 05005KT 18/11 A2978 RMK A01 T01790111  RH  064%=      5-min Rain = 0
KMC4 250501Z 05006KT 18/11 A2978 RMK A01 T01790110  RH  064%=      5-min Rain = 0
KMC4 250502Z 05006KT 18/11 A2978 RMK A01 T01790109  RH  063%=      5-min Rain = 0
KMC4 250503Z 05006KT 18/11 A2978 RMK A01 T01790108  RH  063%=      5-min Rain = 0
KMC4 250504Z 05007KT 18/11 A2978 RMK A01 T01790108  RH  063%=      5-min Rain = 0
KMC4 250505Z 06007KT 18/11 A2978 RMK A01 T01790108  RH  063%=      5-min Rain = 0
KMC4 250506Z 06007KT 18/11 A2978 RMK A01 T01790107  RH  063%=      5-min Rain = 0
KMC4 250507Z 06007KT 18/11 A2978 RMK A01 T01800106  RH  062%=      5-min Rain = 0
KMC4 250508Z 06007KT 18/11 A2978 RMK A01 T01810107  RH  062%=      5-min Rain = 0
KMC4 250509Z 06007KT 18/11 A2978 RMK A01 T01820106  RH  061%=      5-min Rain = 0
KMC4 250510Z 07006KT 18/11 A2978 RMK A01 T01820105  RH  061%=      5-min Rain = 0
KMC4 250511Z 07005KT 18/11 A2978 RMK A01 T01830105  RH  060%=      5-min Rain = 0
KMC4 250512Z 07006KT 18/11 A2978 RMK A01 T01830105  RH  060%=      5-min Rain = 0
KMC4 250513Z 06006KT 18/10 A2978 RMK A01 T01830104  RH  060%=      5-min Rain = 0
KMC4 250514Z 06006KT 18/10 A2978 RMK A01 T01830104  RH  060%=      5-min Rain = 0
KMC4 250515Z 06007KT 18/11 A2978 RMK A01 T01840105  RH  060%=      5-min Rain = 0
KMC4 250516Z 06007KT 18/10 A2978 RMK A01 T01830104  RH  060%=      5-min Rain = 0
KMC4 250517Z 06007KT 18/10 A2978 RMK A01 T01830104  RH  060%=      5-min Rain = 0
KMC4 250518Z 06008KT 18/11 A2978 RMK A01 T01830105  RH  060%=      5-min Rain = 0
KMC4 250519Z 06008KT 18/11 A2978 RMK A01 T01820105  RH  061%=      5-min Rain = 0
KMC4 250520Z 06008KT 18/11 A2978 RMK A01 T01830105  RH  060%=      5-min Rain = 0
KMC4 250521Z 06009KT 18/10 A2978 RMK A01 T01830104  RH  060%=      5-min Rain = 0
KMC4 250522Z 06009KT 18/10 A2978 RMK A01 T01840104  RH  060%=      5-min Rain = 0
KMC4 250523Z 06008KT 18/11 A2978 RMK A01 T01840105  RH  060%=      5-min Rain = 0
KMC4 250524Z 06008KT 18/10 A2978 RMK A01 T01830104  RH  060%=      5-min Rain = 0
KMC4 250525Z 06007KT 18/10 A2978 RMK A01 T01820104  RH  060%=      5-min Rain = 0
KMC4 250526Z 06008KT 18/10 A2978 RMK A01 T01810104  RH  061%=      5-min Rain = 0
KMC4 250527Z 06008KT 18/10 A2979 RMK A01 T01810103  RH  061%=      5-min Rain = 0
KMC4 250528Z 05008KT 18/10 A2978 RMK A01 T01800104  RH  061%=      5-min Rain = 0
KMC4 250529Z 05007KT 18/10 A2978 RMK A01 T01800104  RH  061%=      5-min Rain = 0
KMC4 250530Z 06008KT 18/10 A2978 RMK A01 T01800104  RH  061%=      5-min Rain = 0
KMC4 250531Z 06007KT 18/10 A2978 RMK A01 T01810104  RH  061%=      5-min Rain = 0
KMC4 250532Z 06006KT 18/11 A2978 RMK A01 T01810105  RH  061%=      5-min Rain = 0
KMC4 250533Z 06007KT 18/11 A2978 RMK A01 T01810105  RH  061%=      5-min Rain = 0
KMC4 250534Z 05007KT 18/11 A2978 RMK A01 T01820105  RH  061%=      5-min Rain = 0
KMC4 250535Z 05007KT 18/11 A2978 RMK A01 T01820106  RH  061%=      5-min Rain = 0
KMC4 250536Z 05008KT 18/11 A2978 RMK A01 T01820106  RH  061%=      5-min Rain = 0
KMC4 250537Z 06007KT 18/11 A2978 RMK A01 T01820106  RH  061%=      5-min Rain = 0
KMC4 250538Z 06008KT 18/11 A2978 RMK A01 T01820107  RH  062%=      5-min Rain = 0
KMC4 250539Z 05008KT 18/11 A2978 RMK A01 T01810107  RH  062%=      5-min Rain = 0
KMC4 250540Z 05007KT 18/11 A2978 RMK A01 T01810108  RH  062%=      5-min Rain = 0
KMC4 250541Z 06007KT 18/11 A2978 RMK A01 T01800108  RH  063%=      5-min Rain = 0
KMC4 250542Z 05009KT 18/11 A2978 RMK A01 T01790108  RH  063%=      5-min Rain = 0
KMC4 250543Z 05007KT 18/11 A2978 RMK A01 T01790109  RH  063%=      5-min Rain = 0
KMC4 250544Z 05008KT 18/11 A2978 RMK A01 T01790110  RH  064%=      5-min Rain = 0
KMC4 250545Z 05007KT 18/11 A2978 RMK A01 T01780110  RH  064%=      5-min Rain = 0
KMC4 250546Z 05008KT 18/11 A2978 RMK A01 T01770110  RH  065%=      5-min Rain = 0
KMC4 250547Z 05010KT 18/11 A2979 RMK A01 T01770110  RH  065%=      5-min Rain = 0
KMC4 250548Z 05010KT 18/11 A2979 RMK A01 T01770110  RH  065%=      5-min Rain = 0
KMC4 250549Z 05009KT 18/11 A2979 RMK A01 T01780110  RH  064%=      5-min Rain = 0
KMC4 250550Z 05008KT 18/11 A2979 RMK A01 T01780110  RH  064%=      5-min Rain = 0
KMC4 250551Z 05009KT 18/11 A2979 RMK A01 T01790111  RH  064%=      5-min Rain = 0
KMC4 250552Z 06009KT 18/11 A298 RMK A01 T01790111  RH  064%=      5-min Rain = 0
KMC4 250553Z 06011KT 18/11 A298 RMK A01 T01790110  RH  064%=      5-min Rain = 0
KMC4 250554Z 05011KT 18/11 A298 RMK A01 T01800110  RH  064%=      5-min Rain = 0
KMC4 250555Z 05012KT 18/11 A298 RMK A01 T01810110  RH  063%=      5-min Rain = 0
KMC4 250556Z 06012KT 18/11 A298 RMK A01 T01820109  RH  062%=      5-min Rain = 0
KMC4 250557Z 06012KT 18/11 A298 RMK A01 T01830109  RH  062%=      5-min Rain = 0
KMC4 250558Z 06010KT 18/11 A2981 RMK A01 T01830109  RH  062%=      5-min Rain = 0
KMC4 250559Z 06010KT 18/11 A2981 RMK A01 T01840109  RH  062%=      5-min Rain = 0
KMC4 250600Z 06011KT 18/11 A2981 RMK A01 T01840109  RH  061%=      5-min Rain = 0
KMC4 250601Z 07009KT 18/11 A2981 RMK A01 T01840109  RH  061%=      5-min Rain = 0
KMC4 250602Z 07012KT 18/11 A2981 RMK A01 T01840109  RH  061%=      5-min Rain = 0
KMC4 250603Z 07010KT 18/11 A2981 RMK A01 T01840108  RH  061%=      5-min Rain = 0
KMC4 250604Z 07009KT 18/11 A2981 RMK A01 T01840108  RH  061%=      5-min Rain = 0
KMC4 250605Z 07010KT 18/11 A2981 RMK A01 T01840108  RH  061%=      5-min Rain = 0
KMC4 250606Z 07010KT 18/11 A2981 RMK A01 T01830108  RH  061%=      5-min Rain = 0
KMC4 250607Z 08010KT 18/11 A2981 RMK A01 T01830107  RH  061%=      5-min Rain = 0
KMC4 250608Z 08010KT 18/11 A2981 RMK A01 T01830108  RH  062%=      5-min Rain = 0
KMC4 250609Z 08009KT 18/11 A2981 RMK A01 T01820109  RH  062%=      5-min Rain = 0
KMC4 250610Z 08009KT 18/11 A2981 RMK A01 T01810108  RH  062%=      5-min Rain = 0
KMC4 250611Z 08009KT 18/11 A2981 RMK A01 T01810108  RH  062%=      5-min Rain = 0
KMC4 250612Z 08009KT 18/11 A2981 RMK A01 T01810107  RH  062%=      5-min Rain = 0
KMC4 250613Z 07007KT 18/11 A2981 RMK A01 T01810107  RH  062%=      5-min Rain = 0
KMC4 250614Z 07008KT 18/11 A2981 RMK A01 T01810107  RH  062%=      5-min Rain = 0
KMC4 250615Z 06008KT 18/11 A2981 RMK A01 T01820107  RH  062%=      5-min Rain = 0
KMC4 250616Z 08008KT 18/11 A2981 RMK A01 T01810107  RH  062%=      5-min Rain = 0
KMC4 250617Z 08008KT 18/11 A2981 RMK A01 T01810107  RH  062%=      5-min Rain = 0
KMC4 250618Z 08007KT 18/11 A2981 RMK A01 T01810107  RH  062%=      5-min Rain = 0
KMC4 250619Z 07007KT 18/11 A2981 RMK A01 T01820107  RH  062%=      5-min Rain = 0
KMC4 250620Z 07009KT 18/11 A2981 RMK A01 T01820106  RH  061%=      5-min Rain = 0
KMC4 250621Z 07008KT 18/11 A2981 RMK A01 T01820106  RH  061%=      5-min Rain = 0
KMC4 250622Z 06007KT 18/11 A2981 RMK A01 T01820105  RH  061%=      5-min Rain = 0
KMC4 250623Z 06009KT 18/11 A2981 RMK A01 T01820106  RH  061%=      5-min Rain = 0
KMC4 250624Z 06010KT 18/10 A2981 RMK A01 T01830104  RH  060%=      5-min Rain = 0
KMC4 250625Z 06010KT 19/10 A2981 RMK A01 T01850104  RH  059%=      5-min Rain = 0
KMC4 250626Z 06010KT 19/10 A2981 RMK A01 T01870103  RH  058%=      5-min Rain = 0
KMC4 250627Z 06009KT 19/10 A2981 RMK A01 T01890103  RH  057%=      5-min Rain = 0
KMC4 250628Z 06011KT 19/10 A2981 RMK A01 T01910103  RH  057%=      5-min Rain = 0
KMC4 250629Z 06012G18KT 19/10 A2981 RMK A01 T01920103  RH  056%=      5-min Rain = 0
KMC4 250630Z 06013KT 19/10 A2981 RMK A01 T01930102  RH  056%=      5-min Rain = 0
KMC4 250631Z 06012KT 19/10 A2981 RMK A01 T01940103  RH  056%=      5-min Rain = 0
KMC4 250632Z 05011KT 19/10 A2981 RMK A01 T01940103  RH  056%=      5-min Rain = 0
KMC4 250633Z 06014KT 19/10 A2981 RMK A01 T01940103  RH  056%=      5-min Rain = 0
KMC4 250634Z 05014KT 20/10 A2981 RMK A01 T01950103  RH  056%=      5-min Rain = 0
KMC4 250635Z 06016KT 20/10 A2981 RMK A01 T01950104  RH  056%=      5-min Rain = 0
KMC4 250636Z 06014KT 19/10 A2981 RMK A01 T01940104  RH  056%=      5-min Rain = 0
KMC4 250637Z 05014KT 19/10 A298 RMK A01 T01930104  RH  057%=      5-min Rain = 0
KMC4 250638Z 06013KT 19/11 A298 RMK A01 T01910105  RH  057%=      5-min Rain = 0
KMC4 250639Z 06014KT 19/11 A298 RMK A01 T01900107  RH  058%=      5-min Rain = 0
KMC4 250640Z 06016KT 19/11 A298 RMK A01 T01890108  RH  059%=      5-min Rain = 0
KMC4 250641Z 06016KT 19/11 A298 RMK A01 T01880108  RH  060%=      5-min Rain = 0
KMC4 250642Z 06015G20KT 19/11 A298 RMK A01 T01870110  RH  061%=      5-min Rain = 0
KMC4 250643Z 06017KT 19/11 A298 RMK A01 T01870111  RH  061%=      5-min Rain = 0
KMC4 250644Z 06017G22KT 19/11 A298 RMK A01 T01860113  RH  062%=      5-min Rain = 0
KMC4 250645Z 06015G20KT 19/11 A298 RMK A01 T01860114  RH  063%=      5-min Rain = 0
KMC4 250646Z 05014G19KT 19/12 A298 RMK A01 T01850115  RH  064%=      5-min Rain = 0
KMC4 250647Z 06016G25KT 19/12 A298 RMK A01 T01850117  RH  065%=      5-min Rain = 0
KMC4 250648Z 06014KT 18/12 A298 RMK A01 T01840118  RH  065%=      5-min Rain = 0
KMC4 250649Z 06016KT 18/12 A298 RMK A01 T01840119  RH  065%=      5-min Rain = 0
KMC4 250650Z 05015KT 18/12 A298 RMK A01 T01840119  RH  066%=      5-min Rain = 0
KMC4 250651Z 06015G20KT 18/12 A298 RMK A01 T01840120  RH  066%=      5-min Rain = 0
KMC4 250652Z 06016KT 18/12 A298 RMK A01 T01830121  RH  067%=      5-min Rain = 0
KMC4 250653Z 06015G20KT 18/12 A298 RMK A01 T01830121  RH  067%=      5-min Rain = 0
KMC4 250654Z 05016KT 18/12 A298 RMK A01 T01820121  RH  067%=      5-min Rain = 0
KMC4 250655Z 06013G19KT 18/12 A298 RMK A01 T01820122  RH  068%=      5-min Rain = 0
KMC4 250656Z 06014KT 18/12 A298 RMK A01 T01810122  RH  068%=      5-min Rain = 0
KMC4 250657Z 06016G21KT 18/12 A298 RMK A01 T01810123  RH  069%=      5-min Rain = 0
KMC4 250658Z 06015G20KT 18/12 A298 RMK A01 T01810123  RH  069%=      5-min Rain = 0
KMC4 250659Z 06014KT 18/12 A298 RMK A01 T01800123  RH  069%=      5-min Rain = 0
KMC4 250700Z 06012KT 18/12 A298 RMK A01 T01800123  RH  070%=      5-min Rain = 0
KMC4 250701Z 07010G15KT 18/12 A2981 RMK A01 T01790124  RH  070%=      5-min Rain = 0
KMC4 250702Z 07011KT 18/12 A2981 RMK A01 T01790124  RH  070%=      5-min Rain = 0
KMC4 250703Z 06011G16KT 18/12 A2981 RMK A01 T01780124  RH  070%=      5-min Rain = 0
KMC4 250704Z 07011KT 18/12 A2981 RMK A01 T01780124  RH  071%=      5-min Rain = 0
KMC4 250705Z 07010KT 18/13 A2981 RMK A01 T01780125  RH  071%=      5-min Rain = 0
KMC4 250706Z 06010KT 18/13 A2981 RMK A01 T01770125  RH  071%=      5-min Rain = 0
KMC4 250707Z 07010KT 18/13 A2981 RMK A01 T01770125  RH  072%=      5-min Rain = 0
KMC4 250708Z 07011KT 18/13 A2981 RMK A01 T01770126  RH  072%=      5-min Rain = 0
KMC4 250709Z 06010KT 18/13 A2981 RMK A01 T01760126  RH  072%=      5-min Rain = 0
KMC4 250710Z 06011KT 18/13 A2981 RMK A01 T01760126  RH  072%=      5-min Rain = 0
KMC4 250711Z 06012KT 18/13 A2981 RMK A01 T01760126  RH  073%=      5-min Rain = 0
KMC4 250712Z 07012KT 18/13 A2981 RMK A01 T01750126  RH  073%=      5-min Rain = 0
KMC4 250713Z 06010KT 18/13 A2981 RMK A01 T01750126  RH  073%=      5-min Rain = 0
KMC4 250714Z 07009KT 18/13 A2981 RMK A01 T01750127  RH  073%=      5-min Rain = 0
KMC4 250715Z 07010KT 17/13 A2981 RMK A01 T01740127  RH  074%=      5-min Rain = 0
KMC4 250716Z 07010KT 17/13 A2981 RMK A01 T01740127  RH  074%=      5-min Rain = 0
KMC4 250717Z 06010G16KT 17/13 A2981 RMK A01 T01740127  RH  074%=      5-min Rain = 0
KMC4 250718Z 07011KT 17/13 A298 RMK A01 T01730127  RH  074%=      5-min Rain = 0
KMC4 250719Z 06014KT 17/13 A298 RMK A01 T01730127  RH  074%=      5-min Rain = 0
KMC4 250720Z 06013KT 17/13 A298 RMK A01 T01730128  RH  075%=      5-min Rain = 0
KMC4 250721Z 07011KT 17/13 A298 RMK A01 T01730128  RH  075%=      5-min Rain = 0
KMC4 250722Z 07009KT 17/13 A298 RMK A01 T01730128  RH  075%=      5-min Rain = 0
KMC4 250723Z 07007KT 17/13 A2981 RMK A01 T01720128  RH  075%=      5-min Rain = 0
KMC4 250724Z 07009KT 17/13 A2981 RMK A01 T01720128  RH  075%=      5-min Rain = 0
KMC4 250725Z 07010KT 17/13 A2981 RMK A01 T01720128  RH  076%=      5-min Rain = 0
KMC4 250726Z 07010KT 17/13 A2981 RMK A01 T01710129  RH  076%=      5-min Rain = 0
KMC4 250727Z 06011KT 17/13 A2981 RMK A01 T01710129  RH  076%=      5-min Rain = 0
KMC4 250728Z 07010KT 17/13 A2981 RMK A01 T01710129  RH  076%=      5-min Rain = 0
KMC4 250729Z 07011KT 17/13 A2981 RMK A01 T01700129  RH  077%=      5-min Rain = 0
KMC4 250730Z 07009KT 17/13 A2981 RMK A01 T01700129  RH  077%=      5-min Rain = 0
KMC4 250731Z 06009KT 17/13 A2981 RMK A01 T01700129  RH  077%=      5-min Rain = 0
KMC4 250732Z 06011KT 17/13 A2981 RMK A01 T01690130  RH  077%=      5-min Rain = 0
KMC4 250733Z 07012KT 17/13 A2981 RMK A01 T01690129  RH  077%=      5-min Rain = 0
KMC4 250734Z 06011KT 17/13 A2981 RMK A01 T01690130  RH  077%=      5-min Rain = 0
KMC4 250735Z 07010KT 17/13 A2981 RMK A01 T01690130  RH  078%=      5-min Rain = 0
KMC4 250736Z 07010KT 17/13 A2981 RMK A01 T01690130  RH  078%=      5-min Rain = 0
KMC4 250737Z 07012KT 17/13 A2981 RMK A01 T01680130  RH  078%=      5-min Rain = 0
KMC4 250738Z 07010KT 17/13 A2981 RMK A01 T01680130  RH  078%=      5-min Rain = 0
KMC4 250739Z 07010KT 17/13 A2981 RMK A01 T01680130  RH  078%=      5-min Rain = 0
KMC4 250740Z 07010KT 17/13 A2981 RMK A01 T01680130  RH  079%=      5-min Rain = 0
KMC4 250741Z 06010G16KT 17/13 A2981 RMK A01 T01680131  RH  079%=      5-min Rain = 0
KMC4 250742Z 06012KT 17/13 A2981 RMK A01 T01670131  RH  079%=      5-min Rain = 0
KMC4 250743Z 07010KT 17/13 A2981 RMK A01 T01670130  RH  079%=      5-min Rain = 0
KMC4 250744Z 06011KT 17/13 A298 RMK A01 T01670131  RH  079%=      5-min Rain = 0
KMC4 250745Z 07011KT 17/13 A2981 RMK A01 T01670131  RH  079%=      5-min Rain = 0
KMC4 250746Z 07010KT 17/13 A2981 RMK A01 T01670131  RH  079%=      5-min Rain = 0
KMC4 250747Z 07011KT 17/13 A2981 RMK A01 T01670131  RH  079%=      5-min Rain = 0
KMC4 250748Z 07011KT 17/13 A2981 RMK A01 T01660131  RH  079%=      5-min Rain = 0
KMC4 250749Z 07011KT 17/13 A2981 RMK A01 T01660131  RH  079%=      5-min Rain = 0
KMC4 250750Z 07009KT 17/13 A2981 RMK A01 T01660130  RH  079%=      5-min Rain = 0
KMC4 250751Z 07010KT 17/13 A2981 RMK A01 T01660130  RH  079%=      5-min Rain = 0
KMC4 250752Z 07009KT 17/13 A2981 RMK A01 T01660130  RH  079%=      5-min Rain = 0
KMC4 250753Z 07009KT 17/13 A2981 RMK A01 T01660130  RH  079%=      5-min Rain = 0
KMC4 250754Z 07009KT 17/13 A2981 RMK A01 T01660130  RH  079%=      5-min Rain = 0
KMC4 250755Z 06009KT 17/13 A2981 RMK A01 T01660129  RH  079%=      5-min Rain = 0
KMC4 250756Z 08010KT 17/13 A2981 RMK A01 T01660129  RH  079%=      5-min Rain = 0
KMC4 250757Z 07010KT 17/13 A2981 RMK A01 T01660129  RH  078%=      5-min Rain = 0
KMC4 250758Z 07008KT 17/13 A2981 RMK A01 T01670129  RH  078%=      5-min Rain = 0
KMC4 250759Z 08009KT 17/13 A2981 RMK A01 T01670129  RH  078%=      5-min Rain = 0
KMC4 250800Z 07010KT 17/13 A2981 RMK A01 T01670129  RH  078%=      5-min Rain = 0
KMC4 250801Z 08008KT 17/13 A2981 RMK A01 T01670129  RH  078%=      5-min Rain = 0
KMC4 250802Z 08007KT 17/13 A2981 RMK A01 T01670129  RH  078%=      5-min Rain = 0
KMC4 250803Z 08008KT 17/13 A2981 RMK A01 T01660129  RH  078%=      5-min Rain = 0
KMC4 250804Z 08009KT 17/13 A298 RMK A01 T01660129  RH  079%=      5-min Rain = 0
KMC4 250805Z 08009KT 17/13 A298 RMK A01 T01660128  RH  078%=      5-min Rain = 0
KMC4 250806Z 07008KT 17/13 A298 RMK A01 T01660129  RH  078%=      5-min Rain = 0
KMC4 250807Z 08007KT 17/13 A298 RMK A01 T01660129  RH  079%=      5-min Rain = 0
KMC4 250808Z 09010KT 17/13 A298 RMK A01 T01660128  RH  079%=      5-min Rain = 0
KMC4 250809Z 08009KT 17/13 A298 RMK A01 T01660129  RH  079%=      5-min Rain = 0
KMC4 250810Z 09009KT 17/13 A298 RMK A01 T01650128  RH  079%=      5-min Rain = 0
KMC4 250811Z 10009KT 17/13 A298 RMK A01 T01650128  RH  079%=      5-min Rain = 0
KMC4 250812Z 09011KT 17/13 A298 RMK A01 T01650128  RH  079%=      5-min Rain = 0
KMC4 250813Z 09008KT 17/13 A2981 RMK A01 T01650128  RH  079%=      5-min Rain = 0
KMC4 250814Z 10010KT 17/13 A2981 RMK A01 T01650128  RH  079%=      5-min Rain = 0
KMC4 250815Z 09009KT 17/13 A2981 RMK A01 T01650128  RH  078%=      5-min Rain = 0
KMC4 250816Z 09009KT 17/13 A2981 RMK A01 T01650128  RH  078%=      5-min Rain = 0
KMC4 250817Z 09008KT 17/13 A2981 RMK A01 T01650128  RH  079%=      5-min Rain = 0
KMC4 250818Z 08007KT 16/13 A2981 RMK A01 T01640128  RH  079%=      5-min Rain = 0
KMC4 250819Z 08007KT 16/13 A2981 RMK A01 T01640128  RH  079%=      5-min Rain = 0
KMC4 250820Z 08008KT 16/13 A2981 RMK A01 T01640128  RH  079%=      5-min Rain = 0
KMC4 250821Z 08008KT 16/13 A2981 RMK A01 T01640128  RH  079%=      5-min Rain = 0
KMC4 250822Z 08008KT 16/13 A2981 RMK A01 T01640128  RH  079%=      5-min Rain = 0
KMC4 250823Z 08008KT 16/13 A2982 RMK A01 T01640128  RH  079%=      5-min Rain = 0
KMC4 250824Z 09008KT 16/13 A2981 RMK A01 T01630128  RH  079%=      5-min Rain = 0
KMC4 250825Z 09006KT 16/13 A2982 RMK A01 T01640128  RH  079%=      5-min Rain = 0
KMC4 250826Z 10006KT 16/13 A2981 RMK A01 T01640128  RH  080%=      5-min Rain = 0
KMC4 250827Z 10006KT 16/13 A2981 RMK A01 T01630128  RH  080%=      5-min Rain = 0
KMC4 250828Z 10007KT 16/13 A2981 RMK A01 T01630128  RH  080%=      5-min Rain = 0
KMC4 250829Z 09006KT 16/13 A2981 RMK A01 T01630128  RH  080%=      5-min Rain = 0
KMC4 250830Z 09007KT 16/13 A2981 RMK A01 T01620128  RH  080%=      5-min Rain = 0
KMC4 250831Z 09006KT 16/13 A2981 RMK A01 T01620128  RH  080%=      5-min Rain = 0
KMC4 250832Z 10006KT 16/13 A2981 RMK A01 T01620129  RH  080%=      5-min Rain = 0
KMC4 250833Z 09007KT 16/13 A2981 RMK A01 T01620129  RH  081%=      5-min Rain = 0
KMC4 250834Z 09006KT 16/13 A2981 RMK A01 T01620129  RH  081%=      5-min Rain = 0
KMC4 250835Z 09008KT 16/13 A2981 RMK A01 T01620129  RH  081%=      5-min Rain = 0
KMC4 250836Z 09007KT 16/13 A2981 RMK A01 T01620128  RH  081%=      5-min Rain = 0
KMC4 250837Z 09006KT 16/13 A2981 RMK A01 T01620129  RH  081%=      5-min Rain = 0
KMC4 250838Z 10007KT 16/13 A298 RMK A01 T01620128  RH  081%=      5-min Rain = 0
KMC4 250839Z 09006KT 16/13 A298 RMK A01 T01610128  RH  081%=      5-min Rain = 0
KMC4 250840Z 09006KT 16/13 A298 RMK A01 T01620128  RH  080%=      5-min Rain = 0
KMC4 250841Z 09006KT 16/13 A298 RMK A01 T01620128  RH  080%=      5-min Rain = 0
KMC4 250842Z 08006KT 16/13 A298 RMK A01 T01620128  RH  080%=      5-min Rain = 0
KMC4 250843Z 08005KT 16/13 A298 RMK A01 T01620128  RH  081%=      5-min Rain = 0
KMC4 250844Z 07005KT 16/13 A298 RMK A01 T01610128  RH  081%=      5-min Rain = 0
KMC4 250845Z 08006KT 16/13 A298 RMK A01 T01610128  RH  081%=      5-min Rain = 0
KMC4 250846Z 07005KT 16/13 A298 RMK A01 T01610128  RH  081%=      5-min Rain = 0
KMC4 250847Z 08004KT 16/13 A298 RMK A01 T01610128  RH  081%=      5-min Rain = 0
KMC4 250848Z 08006KT 16/13 A298 RMK A01 T01610129  RH  081%=      5-min Rain = 0
KMC4 250849Z 08006KT 16/13 A298 RMK A01 T01610128  RH  081%=      5-min Rain = 0
KMC4 250850Z 09006KT 16/13 A298 RMK A01 T01610128  RH  081%=      5-min Rain = 0
KMC4 250851Z 10006KT 16/13 A298 RMK A01 T01610128  RH  081%=      5-min Rain = 0
KMC4 250852Z 11005KT 16/13 A298 RMK A01 T01610128  RH  081%=      5-min Rain = 0
KMC4 250853Z 10005KT 16/13 A298 RMK A01 T01610128  RH  081%=      5-min Rain = 0
KMC4 250854Z 10005KT 16/13 A298 RMK A01 T01610128  RH  081%=      5-min Rain = 0
KMC4 250855Z 10004KT 16/13 A298 RMK A01 T01600128  RH  081%=      5-min Rain = 0
KMC4 250856Z 10004KT 16/13 A298 RMK A01 T01600128  RH  082%=      5-min Rain = 0
KMC4 250857Z 10004KT 16/13 A298 RMK A01 T01590128  RH  082%=      5-min Rain = 0
KMC4 250858Z 10005KT 16/13 A298 RMK A01 T01590128  RH  082%=      5-min Rain = 0
KMC4 250859Z 09006KT 16/13 A298 RMK A01 T01590128  RH  082%=      5-min Rain = 0
KMC4 250900Z 09007KT 16/13 A298 RMK A01 T01600128  RH  081%=      5-min Rain = 0
KMC4 250901Z 10008KT 16/13 A298 RMK A01 T01610129  RH  081%=      5-min Rain = 0
KMC4 250902Z 10008KT 16/13 A298 RMK A01 T01620129  RH  081%=      5-min Rain = 0
KMC4 250903Z 09007KT 16/13 A298 RMK A01 T01620129  RH  081%=      5-min Rain = 0
KMC4 250904Z 10006KT 16/13 A298 RMK A01 T01620129  RH  081%=      5-min Rain = 0
KMC4 250905Z 09005KT 16/13 A298 RMK A01 T01620129  RH  081%=      5-min Rain = 0
KMC4 250906Z 10005KT 16/13 A298 RMK A01 T01610129  RH  081%=      5-min Rain = 0
KMC4 250907Z 09006KT 16/13 A298 RMK A01 T01610129  RH  081%=      5-min Rain = 0
KMC4 250908Z 09008KT 16/13 A298 RMK A01 T01610129  RH  081%=      5-min Rain = 0
KMC4 250909Z 08008KT 16/13 A298 RMK A01 T01610129  RH  082%=      5-min Rain = 0
KMC4 250910Z 08008KT 16/13 A298 RMK A01 T01600129  RH  082%=      5-min Rain = 0
KMC4 250911Z 08009KT 16/13 A298 RMK A01 T01600129  RH  082%=      5-min Rain = 0
KMC4 250912Z 09007KT 16/13 A298 RMK A01 T01600130  RH  082%=      5-min Rain = 0
KMC4 250913Z 09008KT 16/13 A298 RMK A01 T01600129  RH  082%=      5-min Rain = 0
KMC4 250914Z 09007KT 16/13 A298 RMK A01 T01610130  RH  082%=      5-min Rain = 0
KMC4 250915Z 09007KT 16/13 A298 RMK A01 T01600129  RH  082%=      5-min Rain = 0
KMC4 250916Z 09007KT 16/13 A298 RMK A01 T01590129  RH  082%=      5-min Rain = 0
KMC4 250917Z 09007KT 16/13 A298 RMK A01 T01590129  RH  083%=      5-min Rain = 0
KMC4 250918Z 09007KT 16/13 A2981 RMK A01 T01590130  RH  083%=      5-min Rain = 0
KMC4 250919Z 08007KT 16/13 A2981 RMK A01 T01590130  RH  083%=      5-min Rain = 0
KMC4 250920Z 08007KT 16/13 A2981 RMK A01 T01590130  RH  083%=      5-min Rain = 0
KMC4 250921Z 08007KT 16/13 A2981 RMK A01 T01580130  RH  083%=      5-min Rain = 0
KMC4 250922Z 08006KT 16/13 A2981 RMK A01 T01580131  RH  084%=      5-min Rain = 0
KMC4 250923Z 08009KT 16/13 A2981 RMK A01 T01580131  RH  084%=      5-min Rain = 0
KMC4 250924Z 09009KT 16/13 A2981 RMK A01 T01580131  RH  084%=      5-min Rain = 0
KMC4 250925Z 09010KT 16/13 A2981 RMK A01 T01580131  RH  084%=      5-min Rain = 0
KMC4 250926Z 09009KT 16/13 A2981 RMK A01 T01580132  RH  084%=      5-min Rain = 0
KMC4 250927Z 09008KT 16/13 A2981 RMK A01 T01590132  RH  084%=      5-min Rain = 0
KMC4 250928Z 10008KT 16/13 A2981 RMK A01 T01590132  RH  084%=      5-min Rain = 0
KMC4 250929Z 09008KT 16/13 A2981 RMK A01 T01590132  RH  084%=      5-min Rain = 0
KMC4 250930Z 09008KT 16/13 A298 RMK A01 T01580132  RH  085%=      5-min Rain = 0
KMC4 250931Z 09008KT 16/13 A298 RMK A01 T01580132  RH  085%=      5-min Rain = 0
KMC4 250932Z 09008KT 16/13 A298 RMK A01 T01580132  RH  085%=      5-min Rain = 0
KMC4 250933Z 09006KT 16/13 A298 RMK A01 T01570132  RH  085%=      5-min Rain = 0
KMC4 250934Z 09008KT 16/13 A298 RMK A01 T01570133  RH  085%=      5-min Rain = 0
KMC4 250935Z 10008KT 16/13 A298 RMK A01 T01570133  RH  085%=      5-min Rain = 0
KMC4 250936Z 10006KT 16/13 A298 RMK A01 T01570133  RH  086%=      5-min Rain = 0
KMC4 250937Z 09007KT 16/13 A2981 RMK A01 T01570133  RH  086%=      5-min Rain = 0
KMC4 250938Z 10007KT 16/13 A298 RMK A01 T01560133  RH  086%=      5-min Rain = 0
KMC4 250939Z 09006KT 16/13 A298 RMK A01 T01560133  RH  086%=      5-min Rain = 0
KMC4 250940Z 08006KT 16/13 A298 RMK A01 T01560133  RH  086%=      5-min Rain = 0
KMC4 250941Z 08007KT 16/13 A298 RMK A01 T01550133  RH  087%=      5-min Rain = 0
KMC4 250942Z 08007KT 16/13 A298 RMK A01 T01550133  RH  087%=      5-min Rain = 0
KMC4 250943Z 08007KT 16/13 A298 RMK A01 T01550133  RH  087%=      5-min Rain = 0
KMC4 250944Z 08008KT 16/13 A298 RMK A01 T01550133  RH  087%=      5-min Rain = 0
KMC4 250945Z 07007KT 16/13 A298 RMK A01 T01550133  RH  087%=      5-min Rain = 0
KMC4 250946Z 07007KT 16/13 A298 RMK A01 T01550133  RH  087%=      5-min Rain = 0
KMC4 250947Z 08005KT 16/13 A298 RMK A01 T01550134  RH  087%=      5-min Rain = 0
KMC4 250948Z 08006KT 16/13 A298 RMK A01 T01550134  RH  087%=      5-min Rain = 0
KMC4 250949Z 08007KT 16/13 A298 RMK A01 T01550134  RH  087%=      5-min Rain = 0
KMC4 250950Z 08006KT 16/13 A298 RMK A01 T01550134  RH  087%=      5-min Rain = 0
KMC4 250951Z 08005KT 16/13 A298 RMK A01 T01550134  RH  087%=      5-min Rain = 0
KMC4 250952Z 09006KT 15/13 A298 RMK A01 T01540133  RH  087%=      5-min Rain = 0
KMC4 250953Z 10006KT 15/13 A298 RMK A01 T01540133  RH  087%=      5-min Rain = 0
KMC4 250954Z 10005KT 15/13 A298 RMK A01 T01540133  RH  088%=      5-min Rain = 0
KMC4 250955Z 11005KT 15/13 A298 RMK A01 T01530133  RH  088%=      5-min Rain = 0
KMC4 250956Z 09004KT 15/13 A298 RMK A01 T01530133  RH  088%=      5-min Rain = 0
KMC4 250957Z 10004KT 15/13 A298 RMK A01 T01520133  RH  088%=      5-min Rain = 0
KMC4 250958Z 10004KT 15/13 A298 RMK A01 T01520133  RH  088%=      5-min Rain = 0
KMC4 250959Z 11004KT 15/13 A298 RMK A01 T01510133  RH  089%=      5-min Rain = 0
KMC4 251000Z 11005KT 15/13 A298 RMK A01 T01510133  RH  089%=      5-min Rain = 0
KMC4 251001Z 11005KT 15/13 A2981 RMK A01 T01510132  RH  089%=      5-min Rain = 0
KMC4 251002Z 10005KT 15/13 A2981 RMK A01 T01500132  RH  089%=      5-min Rain = 0
KMC4 251003Z 10005KT 15/13 A2981 RMK A01 T01490132  RH  089%=      5-min Rain = 0
KMC4 251004Z 11005KT 15/13 A2981 RMK A01 T01490133  RH  090%=      5-min Rain = 0
KMC4 251005Z 10005KT 15/13 A2981 RMK A01 T01490132  RH  090%=      5-min Rain = 0
KMC4 251006Z 09005KT 15/13 A2981 RMK A01 T01490132  RH  090%=      5-min Rain = 0
KMC4 251007Z 09006KT 15/13 A2981 RMK A01 T01480132  RH  090%=      5-min Rain = 0
KMC4 251008Z 09006KT 15/13 A2981 RMK A01 T01480132  RH  090%=      5-min Rain = 0
KMC4 251009Z 09006KT 15/13 A2981 RMK A01 T01480132  RH  090%=      5-min Rain = 0
KMC4 251010Z 09007KT 15/13 A2981 RMK A01 T01480132  RH  090%=      5-min Rain = 0
KMC4 251011Z 10007KT 15/13 A2981 RMK A01 T01490133  RH  090%=      5-min Rain = 0
KMC4 251012Z 10006KT 15/13 A2981 RMK A01 T01490133  RH  090%=      5-min Rain = 0
KMC4 251013Z 10005KT 15/13 A2981 RMK A01 T01490132  RH  090%=      5-min Rain = 0
KMC4 251014Z 10006KT 15/13 A2981 RMK A01 T01490132  RH  090%=      5-min Rain = 0
KMC4 251015Z 10005KT 15/13 A2981 RMK A01 T01480132  RH  090%=      5-min Rain = 0
KMC4 251016Z 09006KT 15/13 A2981 RMK A01 T01480132  RH  090%=      5-min Rain = 0
KMC4 251017Z 09006KT 15/13 A2981 RMK A01 T01480132  RH  090%=      5-min Rain = 0
KMC4 251018Z 09007KT 15/13 A2981 RMK A01 T01480132  RH  090%=      5-min Rain = 0
KMC4 251019Z 09008KT 15/13 A2981 RMK A01 T01480132  RH  090%=      5-min Rain = 0
KMC4 251020Z 09006KT 15/13 A2981 RMK A01 T01480132  RH  090%=      5-min Rain = 0
KMC4 251021Z 09006KT 15/13 A2981 RMK A01 T01480132  RH  090%=      5-min Rain = 0
KMC4 251022Z 09005KT 15/13 A2981 RMK A01 T01480132  RH  090%=      5-min Rain = 0
KMC4 251023Z 09006KT 15/13 A2981 RMK A01 T01480132  RH  090%=      5-min Rain = 0
KMC4 251024Z 10006KT 15/13 A2981 RMK A01 T01480132  RH  090%=      5-min Rain = 0
KMC4 251025Z 10006KT 15/13 A2981 RMK A01 T01480132  RH  090%=      5-min Rain = 0
KMC4 251026Z 09005KT 15/13 A2981 RMK A01 T01480132  RH  090%=      5-min Rain = 0
KMC4 251027Z 10004KT 15/13 A2981 RMK A01 T01470131  RH  090%=      5-min Rain = 0
KMC4 251028Z 09005KT 15/13 A2981 RMK A01 T01470131  RH  090%=      5-min Rain = 0
KMC4 251029Z 09005KT 15/13 A2981 RMK A01 T01470131  RH  090%=      5-min Rain = 0
KMC4 251030Z 09005KT 15/13 A2981 RMK A01 T01470131  RH  090%=      5-min Rain = 0
KMC4 251031Z 09004KT 15/13 A2981 RMK A01 T01470131  RH  090%=      5-min Rain = 0
KMC4 251032Z 09005KT 15/13 A2981 RMK A01 T01470131  RH  090%=      5-min Rain = 0
KMC4 251033Z 09005KT 15/13 A2981 RMK A01 T01470131  RH  090%=      5-min Rain = 0
KMC4 251034Z 10005KT 15/13 A2981 RMK A01 T01470131  RH  090%=      5-min Rain = 0
KMC4 251035Z 10005KT 15/13 A2981 RMK A01 T01470131  RH  090%=      5-min Rain = 0
KMC4 251036Z 10005KT 15/13 A2981 RMK A01 T01470131  RH  090%=      5-min Rain = 0
KMC4 251037Z 10004KT 15/13 A2981 RMK A01 T01470131  RH  090%=      5-min Rain = 0
KMC4 251038Z 09004KT 15/13 A2981 RMK A01 T01470131  RH  090%=      5-min Rain = 0
KMC4 251039Z 08004KT 15/13 A2981 RMK A01 T01470131  RH  090%=      5-min Rain = 0
KMC4 251040Z 10004KT 15/13 A2981 RMK A01 T01470131  RH  090%=      5-min Rain = 0
KMC4 251041Z 09004KT 15/13 A2981 RMK A01 T01460130  RH  090%=      5-min Rain = 0
KMC4 251042Z 09005KT 15/13 A2981 RMK A01 T01460130  RH  090%=      5-min Rain = 0
KMC4 251043Z 09005KT 15/13 A2981 RMK A01 T01460130  RH  090%=      5-min Rain = 0
KMC4 251044Z 09005KT 15/13 A2981 RMK A01 T01460131  RH  090%=      5-min Rain = 0
KMC4 251045Z 09005KT 15/13 A2981 RMK A01 T01460130  RH  090%=      5-min Rain = 0
KMC4 251046Z 09006KT 15/13 A2981 RMK A01 T01460131  RH  090%=      5-min Rain = 0
KMC4 251047Z 09006KT 15/13 A2981 RMK A01 T01460131  RH  091%=      5-min Rain = 0
KMC4 251048Z 09005KT 15/13 A2981 RMK A01 T01460131  RH  091%=      5-min Rain = 0
KMC4 251049Z 09005KT 15/13 A2981 RMK A01 T01460131  RH  091%=      5-min Rain = 0
KMC4 251050Z 09004KT 15/13 A2981 RMK A01 T01460131  RH  091%=      5-min Rain = 0
KMC4 251051Z 09004KT 15/13 A2981 RMK A01 T01460131  RH  091%=      5-min Rain = 0
KMC4 251052Z 09005KT 15/13 A2981 RMK A01 T01460131  RH  091%=      5-min Rain = 0
KMC4 251053Z 09005KT 15/13 A2981 RMK A01 T01460131  RH  091%=      5-min Rain = 0
KMC4 251054Z 10005KT 15/13 A2981 RMK A01 T01460131  RH  091%=      5-min Rain = 0
KMC4 251055Z 09005KT 15/13 A2981 RMK A01 T01450131  RH  091%=      5-min Rain = 0
KMC4 251056Z 10004KT 15/13 A2981 RMK A01 T01450131  RH  091%=      5-min Rain = 0
KMC4 251057Z 10004KT 15/13 A2981 RMK A01 T01450131  RH  091%=      5-min Rain = 0
KMC4 251058Z 11005KT 15/13 A2981 RMK A01 T01450131  RH  091%=      5-min Rain = 0
KMC4 251059Z 11005KT 15/13 A2981 RMK A01 T01450131  RH  091%=      5-min Rain = 0
KMC4 251100Z 11006KT 14/13 A2981 RMK A01 T01440130  RH  091%=      5-min Rain = 0
KMC4 251101Z 10006KT 14/13 A2981 RMK A01 T01440130  RH  091%=      5-min Rain = 0
KMC4 251102Z 11005KT 14/13 A2981 RMK A01 T01440131  RH  092%=      5-min Rain = 0
KMC4 251103Z 11006KT 14/13 A2981 RMK A01 T01440130  RH  092%=      5-min Rain = 0
KMC4 251104Z 11006KT 14/13 A2981 RMK A01 T01440131  RH  092%=      5-min Rain = 0
KMC4 251105Z 11006KT 14/13 A2981 RMK A01 T01440131  RH  092%=      5-min Rain = 0
KMC4 251106Z 11006KT 14/13 A2981 RMK A01 T01440131  RH  092%=      5-min Rain = 0
KMC4 251107Z 10006KT 14/13 A2981 RMK A01 T01440132  RH  092%=      5-min Rain = 0
KMC4 251108Z 11007KT 15/13 A2981 RMK A01 T01450133  RH  092%=      5-min Rain = 0
KMC4 251109Z 10007KT 15/13 A2981 RMK A01 T01460133  RH  092%=      5-min Rain = 0
KMC4 251110Z 11008KT 15/13 A2981 RMK A01 T01460134  RH  092%=      5-min Rain = 0
KMC4 251111Z 10007KT 15/13 A2981 RMK A01 T01470134  RH  092%=      5-min Rain = 0
KMC4 251112Z 11007KT 15/13 A2981 RMK A01 T01470134  RH  092%=      5-min Rain = 0
KMC4 251113Z 11009KT 15/13 A2981 RMK A01 T01470134  RH  092%=      5-min Rain = 0
KMC4 251114Z 11008KT 15/14 A2981 RMK A01 T01480136  RH  092%=      5-min Rain = 0
KMC4 251115Z 11008KT 15/14 A2981 RMK A01 T01490136  RH  092%=      5-min Rain = 0
KMC4 251116Z 11008KT 15/14 A2981 RMK A01 T01490136  RH  092%=      5-min Rain = 0
KMC4 251117Z 12009KT 15/14 A2981 RMK A01 T01490136  RH  092%=      5-min Rain = 0
KMC4 251118Z 12008KT 15/14 A2981 RMK A01 T01490137  RH  092%=      5-min Rain = 0
KMC4 251119Z 12009KT 15/14 A2981 RMK A01 T01490137  RH  092%=      5-min Rain = 0
KMC4 251120Z 12009KT 15/14 A2981 RMK A01 T01490137  RH  092%=      5-min Rain = 0
KMC4 251121Z 11008KT 15/14 A2981 RMK A01 T01490137  RH  092%=      5-min Rain = 0
KMC4 251122Z 12009KT 15/14 A2981 RMK A01 T01500137  RH  092%=      5-min Rain = 0
KMC4 251123Z 12009KT 15/14 A2981 RMK A01 T01500138  RH  092%=      5-min Rain = 0
KMC4 251124Z 12009KT 15/14 A2981 RMK A01 T01500138  RH  093%=      5-min Rain = 0
KMC4 251125Z 12009KT 15/14 A298 RMK A01 T01500138  RH  093%=      5-min Rain = 0
KMC4 251126Z 11007KT 15/14 A298 RMK A01 T01500138  RH  092%=      5-min Rain = 0
KMC4 251127Z 11009KT 15/14 A298 RMK A01 T01500138  RH  092%=      5-min Rain = 0
KMC4 251128Z 11009KT 15/14 A298 RMK A01 T01500139  RH  093%=      5-min Rain = 0
KMC4 251129Z 12010KT 15/14 A2981 RMK A01 T01510139  RH  093%=      5-min Rain = 0
KMC4 251130Z 11010KT 15/14 A2981 RMK A01 T01510139  RH  093%=      5-min Rain = 0
KMC4 251131Z 11009KT 15/14 A2981 RMK A01 T01510139  RH  093%=      5-min Rain = 0
KMC4 251132Z 11008KT 15/14 A2981 RMK A01 T01510139  RH  093%=      5-min Rain = 0
KMC4 251133Z 11009KT 15/14 A2981 RMK A01 T01510139  RH  093%=      5-min Rain = 0
KMC4 251134Z 11008KT 15/14 A2981 RMK A01 T01510139  RH  093%=      5-min Rain = 0
KMC4 251135Z 11008KT 15/14 A2981 RMK A01 T01510139  RH  093%=      5-min Rain = 0
KMC4 251136Z 11010KT 15/14 A2981 RMK A01 T01510139  RH  093%=      5-min Rain = 0
KMC4 251137Z 11008KT 15/14 A2981 RMK A01 T01510139  RH  093%=      5-min Rain = 0
KMC4 251138Z 12010KT 15/14 A2981 RMK A01 T01510140  RH  093%=      5-min Rain = 0
KMC4 251139Z 11009KT 15/14 A2981 RMK A01 T01510140  RH  093%=      5-min Rain = 0
KMC4 251140Z 11010KT 15/14 A2981 RMK A01 T01510140  RH  093%=      5-min Rain = 0
KMC4 251141Z 11009KT 15/14 A2981 RMK A01 T01510140  RH  093%=      5-min Rain = 0
KMC4 251142Z 11008KT 15/14 A2981 RMK A01 T01510140  RH  093%=      5-min Rain = 0
KMC4 251143Z 11009KT 15/14 A2981 RMK A01 T01510140  RH  093%=      5-min Rain = 0
KMC4 251144Z 11009KT 15/14 A2981 RMK A01 T01510140  RH  093%=      5-min Rain = 0
KMC4 251145Z 11010KT 15/14 A2981 RMK A01 T01510140  RH  093%=      5-min Rain = 0
KMC4 251146Z 11008KT 15/14 A2981 RMK A01 T01510140  RH  093%=      5-min Rain = 0
KMC4 251147Z 11009KT 15/14 A2981 RMK A01 T01510140  RH  093%=      5-min Rain = 0
KMC4 251148Z 11008KT 15/14 A2981 RMK A01 T01510140  RH  093%=      5-min Rain = 0
KMC4 251149Z 11009KT 15/14 A2981 RMK A01 T01510140  RH  093%=      5-min Rain = 0
KMC4 251150Z 11010KT 15/14 A2981 RMK A01 T01510140  RH  093%=      5-min Rain = 0
KMC4 251151Z 11009KT 15/14 A2981 RMK A01 T01510140  RH  093%=      5-min Rain = 0
KMC4 251152Z 11008KT 15/14 A298 RMK A01 T01510140  RH  093%=      5-min Rain = 0
KMC4 251153Z 11010KT 15/14 A298 RMK A01 T01510140  RH  093%=      5-min Rain = 0
KMC4 251154Z 11009KT 15/14 A298 RMK A01 T01510140  RH  093%=      5-min Rain = 0
KMC4 251155Z 11010KT 15/14 A298 RMK A01 T01510140  RH  093%=      5-min Rain = 0
KMC4 251156Z 11007KT 15/14 A298 RMK A01 T01510140  RH  093%=      5-min Rain = 0
KMC4 251157Z 11008KT 15/14 A2981 RMK A01 T01510139  RH  093%=      5-min Rain = 0
KMC4 251158Z 11007KT 15/14 A2981 RMK A01 T01510140  RH  093%=      5-min Rain = 0
KMC4 251159Z 11006KT 15/14 A2981 RMK A01 T01510140  RH  093%=      5-min Rain = 0
KMC4 251200Z 11007KT 15/14 A2981 RMK A01 T01510140  RH  093%=      5-min Rain = 0
KMC4 251201Z 11008KT 15/14 A2981 RMK A01 T01500140  RH  093%=      5-min Rain = 0
KMC4 251202Z 11009KT 15/14 A2981 RMK A01 T01500140  RH  093%=      5-min Rain = 0
KMC4 251203Z 11007KT 15/14 A2981 RMK A01 T01500140  RH  093%=      5-min Rain = 0
KMC4 251204Z 11006KT 15/14 A2981 RMK A01 T01500139  RH  093%=      5-min Rain = 0
KMC4 251205Z 11008KT 15/14 A2981 RMK A01 T01500139  RH  093%=      5-min Rain = 0
KMC4 251206Z 11008KT 15/14 A2981 RMK A01 T01500140  RH  093%=      5-min Rain = 0
KMC4 251207Z 10008KT 15/14 A2981 RMK A01 T01500140  RH  093%=      5-min Rain = 0
KMC4 251208Z 11008KT 15/14 A2981 RMK A01 T01500140  RH  093%=      5-min Rain = 0
KMC4 251209Z 11008KT 15/14 A2981 RMK A01 T01500140  RH  093%=      5-min Rain = 0
KMC4 251210Z 11007KT 15/14 A2981 RMK A01 T01500139  RH  093%=      5-min Rain = 0
KMC4 251211Z 11007KT 15/14 A2981 RMK A01 T01500139  RH  093%=      5-min Rain = 0
KMC4 251212Z 11007KT 15/14 A2981 RMK A01 T01510139  RH  093%=      5-min Rain = 0
KMC4 251213Z 11007KT 15/14 A2981 RMK A01 T01500139  RH  093%=      5-min Rain = 0
KMC4 251214Z 11006KT 15/14 A2981 RMK A01 T01500139  RH  093%=      5-min Rain = 0
KMC4 251215Z 11006KT 15/14 A2981 RMK A01 T01500139  RH  093%=      5-min Rain = 0
KMC4 251216Z 11007KT 15/14 A298 RMK A01 T01510139  RH  093%=      5-min Rain = 0
KMC4 251217Z 11007KT 15/14 A298 RMK A01 T01500139  RH  093%=      5-min Rain = 0
KMC4 251218Z 11007KT 15/14 A298 RMK A01 T01500139  RH  093%=      5-min Rain = 0
KMC4 251219Z 11007KT 15/14 A298 RMK A01 T01510139  RH  093%=      5-min Rain = 0
KMC4 251220Z 11007KT 15/14 A298 RMK A01 T01510139  RH  092%=      5-min Rain = 0
KMC4 251221Z 11006KT 15/14 A298 RMK A01 T01510138  RH  092%=      5-min Rain = 0
KMC4 251222Z 11007KT 15/14 A298 RMK A01 T01520139  RH  092%=      5-min Rain = 0
KMC4 251223Z 11007KT 15/14 A298 RMK A01 T01510139  RH  092%=      5-min Rain = 0
KMC4 251224Z 10006KT 15/14 A298 RMK A01 T01510138  RH  092%=      5-min Rain = 0
KMC4 251225Z 11006KT 15/14 A298 RMK A01 T01510138  RH  092%=      5-min Rain = 0
KMC4 251226Z 10007KT 15/14 A298 RMK A01 T01520139  RH  092%=      5-min Rain = 0
KMC4 251227Z 10006KT 15/14 A298 RMK A01 T01520138  RH  092%=      5-min Rain = 0
KMC4 251228Z 10005KT 15/14 A298 RMK A01 T01520138  RH  091%=      5-min Rain = 0
KMC4 251229Z 10006KT 15/14 A298 RMK A01 T01520138  RH  091%=      5-min Rain = 0
KMC4 251230Z 10006KT 15/14 A298 RMK A01 T01530139  RH  091%=      5-min Rain = 0
KMC4 251231Z 10005KT 15/14 A298 RMK A01 T01530139  RH  091%=      5-min Rain = 0
KMC4 251232Z 10006KT 15/14 A298 RMK A01 T01530139  RH  091%=      5-min Rain = 0
KMC4 251233Z 10006KT 15/14 A298 RMK A01 T01540139  RH  091%=      5-min Rain = 0
KMC4 251234Z 10006KT 15/14 A298 RMK A01 T01540139  RH  091%=      5-min Rain = 0
KMC4 251235Z 10005KT 15/14 A298 RMK A01 T01540139  RH  091%=      5-min Rain = 0
KMC4 251236Z 10006KT 16/14 A298 RMK A01 T01550139  RH  090%=      5-min Rain = 0
KMC4 251237Z 11005KT 16/14 A298 RMK A01 T01550139  RH  090%=      5-min Rain = 0
KMC4 251238Z 10006KT 16/14 A298 RMK A01 T01550139  RH  090%=      5-min Rain = 0
KMC4 251239Z 10005KT 16/14 A298 RMK A01 T01560139  RH  090%=      5-min Rain = 0
KMC4 251240Z 10007KT 16/14 A2979 RMK A01 T01560139  RH  090%=      5-min Rain = 0
KMC4 251241Z 11006KT 16/14 A2979 RMK A01 T01570139  RH  089%=      5-min Rain = 0
KMC4 251242Z 11005KT 16/14 A2979 RMK A01 T01570139  RH  089%=      5-min Rain = 0
KMC4 251243Z 11005KT 16/14 A2979 RMK A01 T01570139  RH  089%=      5-min Rain = 0
KMC4 251244Z 11005KT 16/14 A2979 RMK A01 T01570139  RH  089%=      5-min Rain = 0
KMC4 251245Z 11006KT 16/14 A2979 RMK A01 T01580139  RH  089%=      5-min Rain = 0
KMC4 251246Z 11005KT 16/14 A2979 RMK A01 T01580139  RH  088%=      5-min Rain = 0
KMC4 251247Z 11005KT 16/14 A2979 RMK A01 T01590139  RH  088%=      5-min Rain = 0
KMC4 251248Z 11005KT 16/14 A2979 RMK A01 T01590139  RH  088%=      5-min Rain = 0
KMC4 251249Z 11005KT 16/14 A2979 RMK A01 T01600138  RH  087%=      5-min Rain = 0
KMC4 251250Z 12006KT 16/14 A2979 RMK A01 T01610138  RH  087%=      5-min Rain = 0
KMC4 251251Z 11006KT 16/14 A2979 RMK A01 T01610138  RH  086%=      5-min Rain = 0
KMC4 251252Z 11006KT 16/14 A2979 RMK A01 T01620138  RH  086%=      5-min Rain = 0
KMC4 251253Z 10006KT 16/14 A2979 RMK A01 T01620138  RH  085%=      5-min Rain = 0
KMC4 251254Z 11005KT 16/14 A298 RMK A01 T01630138  RH  085%=      5-min Rain = 0
KMC4 251255Z 11005KT 16/14 A2979 RMK A01 T01640138  RH  085%=      5-min Rain = 0
KMC4 251256Z 11005KT 16/14 A2979 RMK A01 T01640138  RH  084%=      5-min Rain = 0
KMC4 251257Z 11004KT 17/14 A2979 RMK A01 T01650138  RH  084%=      5-min Rain = 0
KMC4 251258Z 11005KT 17/14 A2979 RMK A01 T01650139  RH  085%=      5-min Rain = 0
KMC4 251259Z 11007KT 17/14 A2979 RMK A01 T01660138  RH  084%=      5-min Rain = 0
KMC4 251300Z 11006KT 17/14 A2979 RMK A01 T01660137  RH  083%=      5-min Rain = 0
KMC4 251301Z 11007KT 17/14 A2979 RMK A01 T01660138  RH  083%=      5-min Rain = 0
KMC4 251302Z 11007KT 17/14 A2979 RMK A01 T01660137  RH  083%=      5-min Rain = 0
KMC4 251303Z 11006KT 17/14 A2979 RMK A01 T01660137  RH  083%=      5-min Rain = 0
KMC4 251304Z 11006KT 17/14 A2979 RMK A01 T01660138  RH  083%=      5-min Rain = 0
KMC4 251305Z 12006KT 17/14 A2979 RMK A01 T01670138  RH  083%=      5-min Rain = 0
KMC4 251306Z 11006KT 17/14 A2979 RMK A01 T01670137  RH  082%=      5-min Rain = 0
KMC4 251307Z 11006KT 17/14 A2979 RMK A01 T01670137  RH  082%=      5-min Rain = 0
KMC4 251308Z 12005KT 17/14 A2979 RMK A01 T01690139  RH  083%=      5-min Rain = 0
KMC4 251309Z 11006KT 17/14 A2979 RMK A01 T01690138  RH  082%=      5-min Rain = 0
KMC4 251310Z 10006KT 17/14 A2979 RMK A01 T01690138  RH  082%=      5-min Rain = 0
KMC4 251311Z 09007KT 17/14 A2979 RMK A01 T01690138  RH  082%=      5-min Rain = 0
KMC4 251312Z 10006KT 17/14 A2979 RMK A01 T01690138  RH  082%=      5-min Rain = 0
KMC4 251313Z 10006KT 17/14 A2979 RMK A01 T01690138  RH  082%=      5-min Rain = 0
KMC4 251314Z 10005KT 17/14 A2979 RMK A01 T01690137  RH  081%=      5-min Rain = 0
KMC4 251315Z 10005KT 17/14 A2979 RMK A01 T01700139  RH  082%=      5-min Rain = 0
KMC4 251316Z 10005KT 17/14 A2979 RMK A01 T01710139  RH  081%=      5-min Rain = 0
KMC4 251317Z 11006KT 17/14 A2979 RMK A01 T01720139  RH  081%=      5-min Rain = 0
KMC4 251318Z 11007KT 17/14 A2979 RMK A01 T01720139  RH  081%=      5-min Rain = 0
KMC4 251319Z 12007KT 17/14 A2979 RMK A01 T01720137  RH  080%=      5-min Rain = 0
KMC4 251320Z 11006KT 17/14 A2979 RMK A01 T01730139  RH  080%=      5-min Rain = 0
KMC4 251321Z 11006KT 17/14 A2979 RMK A01 T01730140  RH  081%=      5-min Rain = 0
KMC4 251322Z 12008KT 17/14 A2979 RMK A01 T01740140  RH  080%=      5-min Rain = 0
KMC4 251323Z 11006KT 17/14 A2979 RMK A01 T01740138  RH  079%=      5-min Rain = 0
KMC4 251324Z 10007KT 18/14 A2979 RMK A01 T01750140  RH  080%=      5-min Rain = 0
KMC4 251325Z 09006KT 18/14 A2979 RMK A01 T01760140  RH  079%=      5-min Rain = 0
KMC4 251326Z 10008KT 18/14 A2979 RMK A01 T01770140  RH  079%=      5-min Rain = 0
KMC4 251327Z 10009KT 18/14 A298 RMK A01 T01780138  RH  078%=      5-min Rain = 0
KMC4 251328Z 10008KT 18/14 A298 RMK A01 T01780139  RH  078%=      5-min Rain = 0
KMC4 251329Z 11008KT 18/14 A298 RMK A01 T01780138  RH  078%=      5-min Rain = 0
KMC4 251330Z 10009KT 18/14 A298 RMK A01 T01780138  RH  077%=      5-min Rain = 0
KMC4 251331Z 10009KT 18/14 A298 RMK A01 T01780137  RH  077%=      5-min Rain = 0
KMC4 251332Z 11009KT 18/14 A298 RMK A01 T01780138  RH  077%=      5-min Rain = 0
KMC4 251333Z 11008KT 18/14 A298 RMK A01 T01790137  RH  076%=      5-min Rain = 0
KMC4 251334Z 12007KT 18/14 A298 RMK A01 T01800138  RH  076%=      5-min Rain = 0
KMC4 251335Z 12007KT 18/14 A298 RMK A01 T01820140  RH  077%=      5-min Rain = 0
KMC4 251336Z 11009KT 18/14 A298 RMK A01 T01820138  RH  075%=      5-min Rain = 0
KMC4 251337Z 11009KT 18/14 A298 RMK A01 T01830138  RH  075%=      5-min Rain = 0
KMC4 251338Z 12008KT 18/14 A298 RMK A01 T01840138  RH  075%=      5-min Rain = 0
KMC4 251339Z 12009KT 19/14 A298 RMK A01 T01850139  RH  074%=      5-min Rain = 0
KMC4 251340Z 12008KT 19/14 A298 RMK A01 T01850138  RH  074%=      5-min Rain = 0
KMC4 251341Z 13010KT 19/14 A298 RMK A01 T01860139  RH  074%=      5-min Rain = 0
KMC4 251342Z 13010KT 19/14 A298 RMK A01 T01870140  RH  074%=      5-min Rain = 0
KMC4 251343Z 13010KT 19/14 A298 RMK A01 T01870139  RH  073%=      5-min Rain = 0
KMC4 251344Z 12011KT 19/14 A298 RMK A01 T01870138  RH  073%=      5-min Rain = 0
KMC4 251345Z 11010KT 19/14 A298 RMK A01 T01870138  RH  073%=      5-min Rain = 0
KMC4 251346Z 12010KT 19/14 A298 RMK A01 T01870139  RH  074%=      5-min Rain = 0
KMC4 251347Z 11011KT 19/14 A298 RMK A01 T01870138  RH  073%=      5-min Rain = 0
KMC4 251348Z 13010KT 19/14 A298 RMK A01 T01860139  RH  074%=      5-min Rain = 0
KMC4 251349Z 12010KT 19/14 A298 RMK A01 T01860139  RH  074%=      5-min Rain = 0
KMC4 251350Z 13011KT 19/14 A298 RMK A01 T01870138  RH  073%=      5-min Rain = 0
KMC4 251351Z 12012KT 19/14 A298 RMK A01 T01870139  RH  074%=      5-min Rain = 0
KMC4 251352Z 13009KT 19/14 A2981 RMK A01 T01860138  RH  074%=      5-min Rain = 0
KMC4 251353Z 13009KT 19/14 A2981 RMK A01 T01860140  RH  075%=      5-min Rain = 0
KMC4 251354Z 12010KT 19/14 A2981 RMK A01 T01870140  RH  074%=      5-min Rain = 0
KMC4 251355Z 12010KT 19/14 A2981 RMK A01 T01870141  RH  074%=      5-min Rain = 0
KMC4 251356Z 12012KT 19/14 A2981 RMK A01 T01880140  RH  074%=      5-min Rain = 0
KMC4 251357Z 12012KT 19/14 A2981 RMK A01 T01870141  RH  074%=      5-min Rain = 0
KMC4 251358Z 12012KT 19/14 A2981 RMK A01 T01870141  RH  074%=      5-min Rain = 0
KMC4 251359Z 12013KT 19/14 A2981 RMK A01 T01870140  RH  074%=      5-min Rain = 0
KMC4 251400Z 13011KT 19/14 A2981 RMK A01 T01860140  RH  074%=      5-min Rain = 0
KMC4 251401Z 12012KT 19/14 A298 RMK A01 T01870142  RH  075%=      5-min Rain = 0
KMC4 251402Z 12012KT 19/14 A298 RMK A01 T01870141  RH  074%=      5-min Rain = 0
KMC4 251403Z 13014KT 19/14 A298 RMK A01 T01880141  RH  074%=      5-min Rain = 0
KMC4 251404Z 13013KT 19/14 A2981 RMK A01 T01880141  RH  074%=      5-min Rain = 0
KMC4 251405Z 12011KT 19/14 A2981 RMK A01 T01890141  RH  074%=      5-min Rain = 0
KMC4 251406Z 12011KT 19/14 A2981 RMK A01 T01890143  RH  074%=      5-min Rain = 0
KMC4 251407Z 11012KT 19/14 A2981 RMK A01 T01900142  RH  074%=      5-min Rain = 0
KMC4 251408Z 11012KT 19/14 A2981 RMK A01 T01900142  RH  074%=      5-min Rain = 0
KMC4 251409Z 12010KT 19/14 A2981 RMK A01 T01900143  RH  074%=      5-min Rain = 0
KMC4 251410Z 12014KT 19/14 A2981 RMK A01 T01910143  RH  074%=      5-min Rain = 0
KMC4 251411Z 12012KT 19/14 A2981 RMK A01 T01910142  RH  073%=      5-min Rain = 0
KMC4 251412Z 12011KT 19/14 A2981 RMK A01 T01900143  RH  074%=      5-min Rain = 0
KMC4 251413Z 12013KT 19/14 A2981 RMK A01 T01910142  RH  074%=      5-min Rain = 0
KMC4 251414Z 12013KT 19/14 A2981 RMK A01 T01910143  RH  074%=      5-min Rain = 0
KMC4 251415Z 13011KT 19/14 A2981 RMK A01 T01920144  RH  074%=      5-min Rain = 0
KMC4 251416Z 11010KT 19/14 A2981 RMK A01 T01920143  RH  074%=      5-min Rain = 0
KMC4 251417Z 11013KT 19/15 A2981 RMK A01 T01930145  RH  074%=      5-min Rain = 0
KMC4 251418Z 11011KT 19/14 A2981 RMK A01 T01930143  RH  073%=      5-min Rain = 0
KMC4 251419Z 11013KT 19/14 A2981 RMK A01 T01930144  RH  073%=      5-min Rain = 0
KMC4 251420Z 13014KT 19/14 A2981 RMK A01 T01940144  RH  073%=      5-min Rain = 0
KMC4 251421Z 13014KT 19/14 A2981 RMK A01 T01940143  RH  072%=      5-min Rain = 0
KMC4 251422Z 12014KT 20/14 A2981 RMK A01 T01950143  RH  072%=      5-min Rain = 0
KMC4 251423Z 12013KT 20/14 A2981 RMK A01 T01950142  RH  071%=      5-min Rain = 0
KMC4 251424Z 12013KT 20/14 A2981 RMK A01 T01950143  RH  072%=      5-min Rain = 0
KMC4 251425Z 13012KT 20/14 A2981 RMK A01 T01960142  RH  071%=      5-min Rain = 0
KMC4 251426Z 12013KT 20/14 A2981 RMK A01 T01970143  RH  071%=      5-min Rain = 0
KMC4 251427Z 12013KT 20/14 A2981 RMK A01 T01970142  RH  071%=      5-min Rain = 0
KMC4 251428Z 14012KT 20/14 A2981 RMK A01 T01970143  RH  071%=      5-min Rain = 0
KMC4 251429Z 14012KT 20/14 A2981 RMK A01 T01980144  RH  071%=      5-min Rain = 0
KMC4 251430Z 14012KT 20/15 A2981 RMK A01 T01990145  RH  071%=      5-min Rain = 0
KMC4 251431Z 15012KT 20/14 A2981 RMK A01 T02000143  RH  070%=      5-min Rain = 0
KMC4 251432Z 13012KT 20/14 A2981 RMK A01 T01990143  RH  070%=      5-min Rain = 0
KMC4 251433Z 15014KT 20/14 A2981 RMK A01 T01980144  RH  071%=      5-min Rain = 0
KMC4 251434Z 14015KT 20/14 A2981 RMK A01 T01970143  RH  071%=      5-min Rain = 0
KMC4 251435Z 14012KT 20/15 A2981 RMK A01 T01960145  RH  072%=      5-min Rain = 0
KMC4 251436Z 13011KT 20/15 A2981 RMK A01 T01960146  RH  073%=      5-min Rain = 0
KMC4 251437Z 13012KT 20/15 A2981 RMK A01 T01970146  RH  072%=      5-min Rain = 0
KMC4 251438Z 13012KT 20/15 A2981 RMK A01 T01990146  RH  071%=      5-min Rain = 0
KMC4 251439Z 14011KT 20/15 A2981 RMK A01 T01990146  RH  071%=      5-min Rain = 0
KMC4 251440Z 12010KT 20/14 A2981 RMK A01 T01980144  RH  071%=      5-min Rain = 0
KMC4 251441Z 13011KT 20/14 A2981 RMK A01 T01970144  RH  071%=      5-min Rain = 0
KMC4 251442Z 13011KT 20/15 A2981 RMK A01 T01980145  RH  071%=      5-min Rain = 0
KMC4 251443Z 13012KT 20/15 A2982 RMK A01 T01990145  RH  071%=      5-min Rain = 0
KMC4 251444Z 13012KT 20/15 A2982 RMK A01 T01990147  RH  072%=      5-min Rain = 0
KMC4 251445Z 14012KT 20/15 A2982 RMK A01 T01990145  RH  071%=      5-min Rain = 0.01
KMC4 251446Z 14010KT 20/14 A2982 RMK A01 T01980144  RH  071%=      5-min Rain = 0
KMC4 251447Z 14011KT 20/15 A2982 RMK A01 T01980145  RH  071%=      5-min Rain = 0
KMC4 251448Z 13013KT 20/15 A2982 RMK A01 T01990146  RH  071%=      5-min Rain = 0
KMC4 251449Z 14011KT 20/15 A2982 RMK A01 T02000146  RH  071%=      5-min Rain = 0
KMC4 251450Z 13011KT 20/15 A2982 RMK A01 T02000146  RH  071%=      5-min Rain = 0
KMC4 251451Z 15011KT 20/15 A2982 RMK A01 T02010145  RH  070%=      5-min Rain = 0
KMC4 251452Z 14011KT 20/15 A2982 RMK A01 T02010145  RH  070%=      5-min Rain = 0
KMC4 251453Z 14010KT 20/14 A2982 RMK A01 T02010144  RH  070%=      5-min Rain = 0
KMC4 251454Z 15011KT 20/15 A2982 RMK A01 T02010146  RH  070%=      5-min Rain = 0
KMC4 251455Z 15010KT 20/14 A2982 RMK A01 T02020144  RH  069%=      5-min Rain = 0
KMC4 251456Z 15010KT 20/15 A2982 RMK A01 T02020146  RH  070%=      5-min Rain = 0
KMC4 251457Z 14010KT 20/14 A2982 RMK A01 T02020144  RH  069%=      5-min Rain = 0
KMC4 251458Z 15008KT 20/15 A2982 RMK A01 T02020145  RH  070%=      5-min Rain = 0
KMC4 251459Z 15011KT 20/15 A2982 RMK A01 T02040148  RH  070%=      5-min Rain = 0
KMC4 251500Z 14009KT 21/15 A2982 RMK A01 T02050148  RH  070%=      5-min Rain = 0
KMC4 251501Z 12008KT 21/15 A2982 RMK A01 T02060149  RH  070%=      5-min Rain = 0
KMC4 251502Z 13011KT 21/15 A2982 RMK A01 T02060149  RH  070%=      5-min Rain = 0
KMC4 251503Z 12011KT 21/15 A2983 RMK A01 T02070149  RH  070%=      5-min Rain = 0
KMC4 251504Z 13011KT 21/15 A2983 RMK A01 T02060148  RH  069%=      5-min Rain = 0
KMC4 251505Z 13010KT 21/15 A2983 RMK A01 T02050148  RH  070%=      5-min Rain = 0
KMC4 251506Z 12010KT 20/15 A2983 RMK A01 T02040148  RH  070%=      5-min Rain = 0
KMC4 251507Z 11010KT 20/15 A2983 RMK A01 T02040147  RH  070%=      5-min Rain = 0
KMC4 251508Z 11009KT 20/15 A2983 RMK A01 T02020146  RH  070%=      5-min Rain = 0
KMC4 251509Z 12010KT 20/15 A2983 RMK A01 T02020147  RH  071%=      5-min Rain = 0
KMC4 251510Z 13009KT 20/15 A2983 RMK A01 T02030148  RH  071%=      5-min Rain = 0
KMC4 251511Z 13009KT 20/15 A2983 RMK A01 T02040149  RH  070%=      5-min Rain = 0
KMC4 251512Z 13010KT 21/15 A2983 RMK A01 T02060148  RH  069%=      5-min Rain = 0
KMC4 251513Z 14010KT 21/15 A2983 RMK A01 T02050148  RH  070%=      5-min Rain = 0
KMC4 251514Z 15011KT 21/15 A2983 RMK A01 T02050148  RH  070%=      5-min Rain = 0
KMC4 251515Z 15010KT 21/15 A2983 RMK A01 T02050148  RH  070%=      5-min Rain = 0
KMC4 251516Z 15010KT 20/15 A2983 RMK A01 T02040148  RH  070%=      5-min Rain = 0
KMC4 251517Z 15010KT 20/15 A2983 RMK A01 T02040147  RH  070%=      5-min Rain = 0
KMC4 251518Z 14009KT 21/15 A2983 RMK A01 T02050148  RH  070%=      5-min Rain = 0
KMC4 251519Z 13010KT 21/15 A2983 RMK A01 T02060148  RH  069%=      5-min Rain = 0
KMC4 251520Z 13010KT 21/15 A2983 RMK A01 T02050148  RH  069%=      5-min Rain = 0
KMC4 251521Z 12009KT 21/15 A2983 RMK A01 T02060148  RH  069%=      5-min Rain = 0
KMC4 251522Z 11011KT 21/15 A2983 RMK A01 T02060147  RH  069%=      5-min Rain = 0
KMC4 251523Z 11007KT 21/15 A2983 RMK A01 T02070150  RH  070%=      5-min Rain = 0
KMC4 251524Z 11007KT 21/15 A2983 RMK A01 T02090151  RH  069%=      5-min Rain = 0
KMC4 251525Z 12008KT 21/15 A2983 RMK A01 T02100149  RH  068%=      5-min Rain = 0
KMC4 251526Z 14010KT 21/15 A2983 RMK A01 T02090150  RH  069%=      5-min Rain = 0
KMC4 251527Z 14009KT 21/15 A2983 RMK A01 T02090149  RH  069%=      5-min Rain = 0
KMC4 251528Z 14008KT 21/15 A2983 RMK A01 T02090149  RH  069%=      5-min Rain = 0
KMC4 251529Z 12009KT 21/15 A2983 RMK A01 T02090150  RH  069%=      5-min Rain = 0
KMC4 251530Z 13008KT 21/15 A2983 RMK A01 T02100149  RH  068%=      5-min Rain = 0
KMC4 251531Z 14009KT 21/15 A2983 RMK A01 T02110149  RH  068%=      5-min Rain = 0
KMC4 251532Z 14009KT 21/15 A2983 RMK A01 T02110149  RH  067%=      5-min Rain = 0
KMC4 251533Z 13009KT 21/15 A2983 RMK A01 T02120149  RH  067%=      5-min Rain = 0
KMC4 251534Z 14008KT 21/15 A2983 RMK A01 T02130148  RH  066%=      5-min Rain = 0
KMC4 251535Z 14011KT 21/15 A2983 RMK A01 T02130150  RH  067%=      5-min Rain = 0
KMC4 251536Z 12008KT 21/15 A2983 RMK A01 T02140149  RH  067%=      5-min Rain = 0
KMC4 251537Z 13010KT 21/15 A2983 RMK A01 T02140151  RH  067%=      5-min Rain = 0
KMC4 251538Z 12008KT 22/15 A2983 RMK A01 T02150150  RH  066%=      5-min Rain = 0
KMC4 251539Z 12010KT 22/15 A2983 RMK A01 T02150149  RH  066%=      5-min Rain = 0
KMC4 251540Z 14009KT 21/15 A2983 RMK A01 T02140150  RH  067%=      5-min Rain = 0
KMC4 251541Z 13010KT 22/15 A2983 RMK A01 T02150149  RH  066%=      5-min Rain = 0
KMC4 251542Z 11008KT 22/15 A2984 RMK A01 T02150152  RH  067%=      5-min Rain = 0
KMC4 251543Z 08007KT 22/15 A2984 RMK A01 T02170150  RH  066%=      5-min Rain = 0
KMC4 251544Z 10006KT 22/15 A2984 RMK A01 T02170151  RH  066%=      5-min Rain = 0
KMC4 251545Z 12010KT 22/15 A2984 RMK A01 T02200151  RH  065%=      5-min Rain = 0
KMC4 251546Z 12006KT 22/15 A2984 RMK A01 T02200150  RH  065%=      5-min Rain = 0
KMC4 251547Z 11007KT 22/15 A2984 RMK A01 T02190151  RH  065%=      5-min Rain = 0
KMC4 251548Z 10009KT 22/15 A2984 RMK A01 T02190150  RH  065%=      5-min Rain = 0
KMC4 251549Z 11008KT 22/15 A2984 RMK A01 T02200148  RH  064%=      5-min Rain = 0
KMC4 251550Z 11006KT 22/15 A2984 RMK A01 T02190147  RH  064%=      5-min Rain = 0
KMC4 251551Z 09006KT 22/15 A2984 RMK A01 T02170149  RH  065%=      5-min Rain = 0
KMC4 251552Z 11006KT 22/15 A2984 RMK A01 T02180148  RH  064%=      5-min Rain = 0
KMC4 251553Z 15008KT 22/15 A2984 RMK A01 T02190151  RH  065%=      5-min Rain = 0
KMC4 251554Z 15011KT 22/15 A2984 RMK A01 T02210152  RH  065%=      5-min Rain = 0
KMC4 251555Z 15009KT 22/15 A2984 RMK A01 T02220151  RH  064%=      5-min Rain = 0
KMC4 251556Z 16009KT 22/15 A2984 RMK A01 T02210152  RH  065%=      5-min Rain = 0
KMC4 251557Z 16008KT 22/15 A2984 RMK A01 T02240152  RH  064%=      5-min Rain = 0
KMC4 251558Z 12011KT 23/15 A2984 RMK A01 T02250152  RH  064%=      5-min Rain = 0
KMC4 251559Z 11009KT 23/15 A2984 RMK A01 T02250150  RH  063%=      5-min Rain = 0
KMC4 251600Z 13010KT 22/15 A2984 RMK A01 T02230151  RH  064%=      5-min Rain = 0
KMC4 251601Z 13008KT 22/15 A2984 RMK A01 T02230150  RH  063%=      5-min Rain = 0
KMC4 251602Z 10006KT 22/15 A2984 RMK A01 T02240149  RH  063%=      5-min Rain = 0
KMC4 251603Z 13009KT 22/15 A2984 RMK A01 T02240151  RH  063%=      5-min Rain = 0
KMC4 251604Z 11009KT 22/15 A2984 RMK A01 T02240151  RH  063%=      5-min Rain = 0
KMC4 251605Z 12007KT 22/15 A2984 RMK A01 T02230150  RH  063%=      5-min Rain = 0
KMC4 251606Z 12009KT 22/15 A2984 RMK A01 T02220151  RH  064%=      5-min Rain = 0
KMC4 251607Z 14008KT 22/15 A2984 RMK A01 T02220150  RH  064%=      5-min Rain = 0
KMC4 251608Z 14008KT 22/15 A2984 RMK A01 T02240152  RH  064%=      5-min Rain = 0
KMC4 251609Z 11010KT 23/15 A2984 RMK A01 T02250151  RH  063%=      5-min Rain = 0
KMC4 251610Z 11008KT 22/15 A2984 RMK A01 T02240150  RH  063%=      5-min Rain = 0
KMC4 251611Z 13009KT 22/15 A2984 RMK A01 T02240151  RH  063%=      5-min Rain = 0
KMC4 251612Z 15007KT 23/15 A2984 RMK A01 T02250149  RH  062%=      5-min Rain = 0
KMC4 251613Z 12007KT 22/15 A2984 RMK A01 T02230149  RH  063%=      5-min Rain = 0
KMC4 251614Z 11008KT 22/15 A2984 RMK A01 T02230149  RH  063%=      5-min Rain = 0
KMC4 251615Z 13007KT 22/15 A2984 RMK A01 T02230150  RH  063%=      5-min Rain = 0
KMC4 251616Z 12007KT 23/15 A2984 RMK A01 T02250151  RH  063%=      5-min Rain = 0
KMC4 251617Z 13007KT 23/15 A2984 RMK A01 T02260149  RH  062%=      5-min Rain = 0
KMC4 251618Z 13010KT 23/15 A2984 RMK A01 T02260151  RH  063%=      5-min Rain = 0
KMC4 251619Z 11006KT 23/15 A2985 RMK A01 T02270149  RH  061%=      5-min Rain = 0
KMC4 251620Z 13009KT 23/15 A2985 RMK A01 T02260150  RH  062%=      5-min Rain = 0
KMC4 251621Z 13010KT 23/15 A2985 RMK A01 T02260151  RH  062%=      5-min Rain = 0
KMC4 251622Z 10006KT 23/15 A2985 RMK A01 T02260150  RH  062%=      5-min Rain = 0
KMC4 251623Z 14007KT 23/15 A2985 RMK A01 T02270151  RH  062%=      5-min Rain = 0
KMC4 251624Z 12007KT 23/15 A2985 RMK A01 T02270150  RH  062%=      5-min Rain = 0
KMC4 251625Z 12008KT 23/15 A2985 RMK A01 T02270149  RH  062%=      5-min Rain = 0
KMC4 251626Z 11009KT 23/15 A2985 RMK A01 T02260151  RH  062%=      5-min Rain = 0
KMC4 251627Z 10007KT 23/15 A2985 RMK A01 T02260150  RH  062%=      5-min Rain = 0
KMC4 251628Z 10006KT 23/15 A2985 RMK A01 T02250149  RH  062%=      5-min Rain = 0
KMC4 251629Z 11008KT 23/15 A2985 RMK A01 T02250151  RH  063%=      5-min Rain = 0
KMC4 251630Z 10009KT 23/15 A2985 RMK A01 T02270152  RH  062%=      5-min Rain = 0
KMC4 251631Z 08008KT 23/15 A2985 RMK A01 T02270152  RH  063%=      5-min Rain = 0
KMC4 251632Z 07008KT 23/15 A2985 RMK A01 T02270151  RH  062%=      5-min Rain = 0
KMC4 251633Z 08007KT 23/15 A2985 RMK A01 T02260152  RH  063%=      5-min Rain = 0
KMC4 251634Z 07007KT 23/15 A2985 RMK A01 T02250150  RH  063%=      5-min Rain = 0
KMC4 251635Z 08005KT 22/15 A2985 RMK A01 T02240152  RH  064%=      5-min Rain = 0
KMC4 251636Z 09006KT 23/15 A2985 RMK A01 T02260152  RH  063%=      5-min Rain = 0
KMC4 251637Z 08005KT 23/15 A2985 RMK A01 T02260151  RH  062%=      5-min Rain = 0
KMC4 251638Z 08009KT 23/15 A2985 RMK A01 T02260151  RH  063%=      5-min Rain = 0
KMC4 251639Z 08009KT 23/15 A2985 RMK A01 T02270151  RH  062%=      5-min Rain = 0
KMC4 251640Z 08008KT 23/15 A2985 RMK A01 T02270150  RH  062%=      5-min Rain = 0
KMC4 251641Z 09011KT 23/15 A2985 RMK A01 T02290151  RH  062%=      5-min Rain = 0
KMC4 251642Z 08009KT 23/15 A2985 RMK A01 T02300152  RH  061%=      5-min Rain = 0
KMC4 251643Z 07007KT 23/15 A2985 RMK A01 T02330152  RH  060%=      5-min Rain = 0
KMC4 251644Z 06011KT 23/15 A2985 RMK A01 T02340152  RH  060%=      5-min Rain = 0
KMC4 251645Z 06009KT 23/15 A2985 RMK A01 T02330150  RH  060%=      5-min Rain = 0
KMC4 251646Z 05009KT 23/15 A2985 RMK A01 T02300149  RH  060%=      5-min Rain = 0
KMC4 251647Z 06011KT 23/15 A2985 RMK A01 T02300151  RH  061%=      5-min Rain = 0
KMC4 251648Z 07008KT 23/15 A2985 RMK A01 T02340153  RH  061%=      5-min Rain = 0
KMC4 251649Z 05010KT 24/15 A2985 RMK A01 T02370151  RH  059%=      5-min Rain = 0
KMC4 251650Z 06008KT 23/15 A2985 RMK A01 T02340149  RH  059%=      5-min Rain = 0
KMC4 251651Z 08010KT 23/15 A2985 RMK A01 T02310150  RH  060%=      5-min Rain = 0
KMC4 251652Z 08008KT 23/15 A2985 RMK A01 T02320148  RH  059%=      5-min Rain = 0
KMC4 251653Z 09007KT 23/15 A2985 RMK A01 T02340147  RH  058%=      5-min Rain = 0
KMC4 251654Z 09007KT 24/15 A2985 RMK A01 T02360146  RH  057%=      5-min Rain = 0
KMC4 251655Z 07004KT 24/15 A2985 RMK A01 T02360147  RH  058%=      5-min Rain = 0
KMC4 251656Z 05007KT 24/15 A2986 RMK A01 T02370148  RH  057%=      5-min Rain = 0
KMC4 251657Z 08008KT 24/15 A2986 RMK A01 T02380150  RH  058%=      5-min Rain = 0
KMC4 251658Z 08007KT 24/15 A2986 RMK A01 T02360148  RH  058%=      5-min Rain = 0
KMC4 251659Z 07008KT 23/15 A2986 RMK A01 T02340149  RH  059%=      5-min Rain = 0
KMC4 251700Z 09009KT 23/15 A2986 RMK A01 T02340149  RH  059%=      5-min Rain = 0
KMC4 251701Z 10007KT 23/15 A2986 RMK A01 T02330148  RH  059%=      5-min Rain = 0
KMC4 251702Z 08007KT 23/15 A2986 RMK A01 T02320148  RH  059%=      5-min Rain = 0
KMC4 251703Z 08008KT 24/15 A2986 RMK A01 T02350149  RH  059%=      5-min Rain = 0
KMC4 251704Z 06006KT 24/15 A2986 RMK A01 T02380151  RH  058%=      5-min Rain = 0
KMC4 251705Z 07009G14KT 24/15 A2986 RMK A01 T02400153  RH  058%=      5-min Rain = 0
KMC4 251706Z 07011KT 24/15 A2986 RMK A01 T02420151  RH  057%=      5-min Rain = 0
KMC4 251707Z 06010KT 24/15 A2986 RMK A01 T02410152  RH  057%=      5-min Rain = 0
KMC4 251708Z 08008KT 24/15 A2986 RMK A01 T02390150  RH  057%=      5-min Rain = 0
KMC4 251709Z 06009KT 24/15 A2986 RMK A01 T02380150  RH  058%=      5-min Rain = 0
KMC4 251710Z 06010KT 24/15 A2986 RMK A01 T02400150  RH  057%=      5-min Rain = 0
KMC4 251711Z 06009KT 24/15 A2986 RMK A01 T02410150  RH  057%=      5-min Rain = 0
KMC4 251712Z 05011KT 24/15 A2986 RMK A01 T02410150  RH  057%=      5-min Rain = 0
KMC4 251713Z 05011KT 24/15 A2986 RMK A01 T02420149  RH  056%=      5-min Rain = 0
KMC4 251714Z 05010KT 24/15 A2986 RMK A01 T02400146  RH  056%=      5-min Rain = 0
KMC4 251715Z 06009KT 24/15 A2986 RMK A01 T02360147  RH  058%=      5-min Rain = 0
KMC4 251716Z 05007KT 23/15 A2986 RMK A01 T02330148  RH  059%=      5-min Rain = 0
KMC4 251717Z 06008KT 23/15 A2986 RMK A01 T02340148  RH  059%=      5-min Rain = 0
KMC4 251718Z 09008KT 24/15 A2986 RMK A01 T02350149  RH  059%=      5-min Rain = 0
KMC4 251719Z 09011KT 24/15 A2985 RMK A01 T02360149  RH  058%=      5-min Rain = 0
KMC4 251720Z 07009G15KT 24/15 A2986 RMK A01 T02360149  RH  058%=      5-min Rain = 0
KMC4 251721Z 05010G16KT 24/15 A2986 RMK A01 T02360148  RH  058%=      5-min Rain = 0
KMC4 251722Z 05013KT 24/15 A2985 RMK A01 T02370149  RH  058%=      5-min Rain = 0
KMC4 251723Z 06011KT 24/15 A2986 RMK A01 T02400149  RH  057%=      5-min Rain = 0
KMC4 251724Z 05009KT 24/15 A2986 RMK A01 T02420147  RH  055%=      5-min Rain = 0
KMC4 251725Z 06014KT 24/15 A2985 RMK A01 T02420150  RH  056%=      5-min Rain = 0
KMC4 251726Z 05012KT 24/15 A2986 RMK A01 T02390150  RH  057%=      5-min Rain = 0
KMC4 251727Z 05010KT 24/15 A2986 RMK A01 T02350150  RH  058%=      5-min Rain = 0
KMC4 251728Z 03012G17KT 23/15 A2986 RMK A01 T02340149  RH  059%=      5-min Rain = 0
KMC4 251729Z 06014KT 24/15 A2985 RMK A01 T02350151  RH  059%=      5-min Rain = 0
KMC4 251730Z 09009KT 24/15 A2986 RMK A01 T02390149  RH  057%=      5-min Rain = 0
KMC4 251731Z 09008KT 24/15 A2986 RMK A01 T02400149  RH  057%=      5-min Rain = 0
KMC4 251732Z 07008KT 24/15 A2986 RMK A01 T02400148  RH  056%=      5-min Rain = 0
KMC4 251733Z 05006KT 24/15 A2986 RMK A01 T02390149  RH  057%=      5-min Rain = 0
KMC4 251734Z 05013KT 24/15 A2986 RMK A01 T02400149  RH  057%=      5-min Rain = 0
KMC4 251735Z 06009KT 24/15 A2986 RMK A01 T02380148  RH  057%=      5-min Rain = 0
KMC4 251736Z 05007KT 24/15 A2986 RMK A01 T02360148  RH  058%=      5-min Rain = 0
KMC4 251737Z 05010KT 24/15 A2986 RMK A01 T02380152  RH  058%=      5-min Rain = 0
KMC4 251738Z 05009KT 24/15 A2986 RMK A01 T02440150  RH  056%=      5-min Rain = 0
KMC4 251739Z 05010KT 25/15 A2986 RMK A01 T02460149  RH  055%=      5-min Rain = 0
KMC4 251740Z 05010KT 25/15 A2986 RMK A01 T02450148  RH  055%=      5-min Rain = 0
KMC4 251741Z 03008G13KT 24/15 A2986 RMK A01 T02430148  RH  055%=      5-min Rain = 0
KMC4 251742Z 03009KT 24/15 A2986 RMK A01 T02430147  RH  055%=      5-min Rain = 0
KMC4 251743Z 03010KT 24/15 A2986 RMK A01 T02420147  RH  055%=      5-min Rain = 0
KMC4 251744Z 04010KT 24/15 A2986 RMK A01 T02440147  RH  055%=      5-min Rain = 0
KMC4 251745Z 05007KT 24/15 A2986 RMK A01 T02420146  RH  055%=      5-min Rain = 0
KMC4 251746Z 05009KT 24/15 A2986 RMK A01 T02440149  RH  055%=      5-min Rain = 0
KMC4 251747Z 05009KT 25/15 A2986 RMK A01 T02470147  RH  054%=      5-min Rain = 0
KMC4 251748Z 07008KT 25/14 A2986 RMK A01 T02480143  RH  052%=      5-min Rain = 0
KMC4 251749Z 06006KT 25/14 A2986 RMK A01 T02460143  RH  053%=      5-min Rain = 0
KMC4 251750Z 06007KT 25/15 A2986 RMK A01 T02470145  RH  053%=      5-min Rain = 0
KMC4 251751Z 07010KT 25/14 A2986 RMK A01 T02470144  RH  053%=      5-min Rain = 0
KMC4 251752Z 05009KT 25/14 A2986 RMK A01 T02450142  RH  053%=      5-min Rain = 0
KMC4 251753Z 02009KT 25/14 A2986 RMK A01 T02460142  RH  052%=      5-min Rain = 0
KMC4 251754Z 04007KT 25/14 A2986 RMK A01 T02480140  RH  051%=      5-min Rain = 0
KMC4 251755Z 09008KT 25/14 A2986 RMK A01 T02470141  RH  052%=      5-min Rain = 0
KMC4 251756Z 10006KT 25/14 A2986 RMK A01 T02450140  RH  052%=      5-min Rain = 0
KMC4 251757Z 06009KT 25/14 A2986 RMK A01 T02470142  RH  052%=      5-min Rain = 0
KMC4 251758Z 05006KT 25/14 A2986 RMK A01 T02490140  RH  051%=      5-min Rain = 0
KMC4 251759Z 03008KT 25/14 A2986 RMK A01 T02490141  RH  051%=      5-min Rain = 0
KMC4 251800Z 03005KT 25/14 A2986 RMK A01 T02490139  RH  050%=      5-min Rain = 0
KMC4 251801Z 04004KT 25/14 A2986 RMK A01 T02480138  RH  050%=      5-min Rain = 0
KMC4 251802Z 05008KT 25/14 A2986 RMK A01 T02480141  RH  051%=      5-min Rain = 0
KMC4 251803Z 04007KT 25/14 A2986 RMK A01 T02520141  RH  050%=      5-min Rain = 0
KMC4 251804Z 03007KT 25/14 A2986 RMK A01 T02530140  RH  049%=      5-min Rain = 0
KMC4 251805Z 03007KT 25/14 A2986 RMK A01 T02510142  RH  051%=      5-min Rain = 0
KMC4 251806Z 02005KT 25/14 A2986 RMK A01 T02490142  RH  051%=      5-min Rain = 0
KMC4 251807Z 05005KT 25/14 A2986 RMK A01 T02480143  RH  052%=      5-min Rain = 0
KMC4 251808Z 09007KT 25/14 A2986 RMK A01 T02500143  RH  051%=      5-min Rain = 0
KMC4 251809Z 09009KT 25/14 A2986 RMK A01 T02500141  RH  051%=      5-min Rain = 0
KMC4 251810Z 08011KT 25/14 A2986 RMK A01 T02490144  RH  052%=      5-min Rain = 0
KMC4 251811Z 08008KT 25/14 A2986 RMK A01 T02450143  RH  053%=      5-min Rain = 0
KMC4 251812Z 06007KT 24/15 A2986 RMK A01 T02440145  RH  054%=      5-min Rain = 0
KMC4 251813Z 08010KT 25/14 A2986 RMK A01 T02450144  RH  053%=      5-min Rain = 0
KMC4 251814Z 08010KT 25/14 A2986 RMK A01 T02450143  RH  053%=      5-min Rain = 0
KMC4 251815Z 08009KT 24/14 A2986 RMK A01 T02440143  RH  053%=      5-min Rain = 0
KMC4 251816Z 08011KT 25/14 A2987 RMK A01 T02450144  RH  053%=      5-min Rain = 0
KMC4 251817Z 07007KT 25/14 A2987 RMK A01 T02450142  RH  053%=      5-min Rain = 0
KMC4 251818Z 07009KT 24/14 A2986 RMK A01 T02440144  RH  054%=      5-min Rain = 0
KMC4 251819Z 08009KT 25/14 A2986 RMK A01 T02470143  RH  052%=      5-min Rain = 0
KMC4 251820Z 08007KT 25/14 A2986 RMK A01 T02510141  RH  050%=      5-min Rain = 0
KMC4 251821Z 10009KT 25/14 A2986 RMK A01 T02510141  RH  050%=      5-min Rain = 0
KMC4 251822Z 10009KT 25/14 A2986 RMK A01 T02530142  RH  050%=      5-min Rain = 0
KMC4 251823Z 10011G16KT 25/14 A2986 RMK A01 T02520141  RH  050%=      5-min Rain = 0
KMC4 251824Z 09009KT 25/14 A2986 RMK A01 T02510136  RH  049%=      5-min Rain = 0
KMC4 251825Z 09006KT 25/14 A2986 RMK A01 T02500139  RH  050%=      5-min Rain = 0
KMC4 251826Z 07005KT 25/14 A2986 RMK A01 T02540140  RH  049%=      5-min Rain = 0
KMC4 251827Z 10007KT 26/14 A2986 RMK A01 T02550141  RH  049%=      5-min Rain = 0
KMC4 251828Z 03008KT 26/14 A2986 RMK A01 T02570142  RH  049%=      5-min Rain = 0
KMC4 251829Z 03008KT 26/14 A2986 RMK A01 T02580143  RH  049%=      5-min Rain = 0
KMC4 251830Z 04008KT 26/14 A2986 RMK A01 T02590143  RH  049%=      5-min Rain = 0
KMC4 251831Z 06006KT 26/14 A2986 RMK A01 T02590144  RH  049%=      5-min Rain = 0
KMC4 251832Z 03004KT 26/15 A2986 RMK A01 T02610145  RH  049%=      5-min Rain = 0
KMC4 251833Z 03007KT 26/14 A2986 RMK A01 T02620144  RH  048%=      5-min Rain = 0
KMC4 251834Z 05009KT 26/14 A2986 RMK A01 T02590141  RH  048%=      5-min Rain = 0
KMC4 251835Z 05012KT 26/14 A2986 RMK A01 T02550137  RH  048%=      5-min Rain = 0
KMC4 251836Z 06008KT 25/14 A2987 RMK A01 T02510137  RH  049%=      5-min Rain = 0
KMC4 251837Z 05007KT 25/13 A2986 RMK A01 T02490134  RH  049%=      5-min Rain = 0
KMC4 251838Z 07005KT 25/14 A2986 RMK A01 T02460136  RH  050%=      5-min Rain = 0
KMC4 251839Z 07005KT 25/14 A2986 RMK A01 T02470137  RH  050%=      5-min Rain = 0
KMC4 251840Z 06007KT 25/14 A2986 RMK A01 T02480137  RH  050%=      5-min Rain = 0
KMC4 251841Z 08007KT 25/14 A2986 RMK A01 T02480137  RH  050%=      5-min Rain = 0
KMC4 251842Z 07006KT 25/14 A2986 RMK A01 T02480136  RH  050%=      5-min Rain = 0
KMC4 251843Z 07007KT 25/14 A2986 RMK A01 T02480138  RH  050%=      5-min Rain = 0
KMC4 251844Z 04006KT 25/14 A2986 RMK A01 T02500137  RH  049%=      5-min Rain = 0
KMC4 251845Z 04009KT 25/14 A2986 RMK A01 T02530140  RH  049%=      5-min Rain = 0
KMC4 251846Z 06009KT 26/14 A2986 RMK A01 T02610140  RH  047%=      5-min Rain = 0
KMC4 251847Z 08007KT 26/14 A2986 RMK A01 T02640139  RH  046%=      5-min Rain = 0
KMC4 251848Z 06010KT 26/14 A2986 RMK A01 T02640137  RH  045%=      5-min Rain = 0
KMC4 251849Z 06010KT 26/14 A2986 RMK A01 T02640139  RH  046%=      5-min Rain = 0
KMC4 251850Z 07011KT 26/14 A2986 RMK A01 T02630139  RH  046%=      5-min Rain = 0
KMC4 251851Z 08009KT 26/14 A2986 RMK A01 T02630137  RH  046%=      5-min Rain = 0
KMC4 251852Z 10009KT 26/14 A2986 RMK A01 T02630138  RH  046%=      5-min Rain = 0
KMC4 251853Z 12009KT 26/14 A2986 RMK A01 T02610136  RH  046%=      5-min Rain = 0
KMC4 251854Z 12007KT 26/14 A2986 RMK A01 T02600136  RH  046%=      5-min Rain = 0
KMC4 251855Z 08007KT 26/14 A2986 RMK A01 T02610138  RH  047%=      5-min Rain = 0
KMC4 251856Z 09008KT 26/14 A2986 RMK A01 T02610136  RH  046%=      5-min Rain = 0
KMC4 251857Z 08005G12KT 26/14 A2986 RMK A01 T02580136  RH  047%=      5-min Rain = 0
KMC4 251858Z 07010KT 26/14 A2986 RMK A01 T02590135  RH  046%=      5-min Rain = 0
KMC4 251859Z 06008KT 26/13 A2986 RMK A01 T02590133  RH  046%=      5-min Rain = 0
KMC4 251900Z 04009KT 26/14 A2986 RMK A01 T02580135  RH  046%=      5-min Rain = 0
KMC4 251901Z 05007KT 26/13 A2986 RMK A01 T02560130  RH  045%=      5-min Rain = 0
KMC4 251902Z 04004KT 25/13 A2986 RMK A01 T02540128  RH  046%=      5-min Rain = 0
KMC4 251903Z 35005KT 25/13 A2986 RMK A01 T02520129  RH  046%=      5-min Rain = 0
KMC4 251904Z 03007G12KT 25/13 A2985 RMK A01 T02520133  RH  047%=      5-min Rain = 0
KMC4 251905Z 08012G17KT 26/13 A2985 RMK A01 T02550131  RH  046%=      5-min Rain = 0
KMC4 251906Z 07007KT 26/13 A2985 RMK A01 T02580132  RH  046%=      5-min Rain = 0
KMC4 251907Z 07007KT 26/13 A2986 RMK A01 T02610131  RH  044%=      5-min Rain = 0
KMC4 251908Z 07009KT 26/13 A2985 RMK A01 T02610130  RH  044%=      5-min Rain = 0
KMC4 251909Z 05007KT 26/13 A2985 RMK A01 T02610130  RH  044%=      5-min Rain = 0
KMC4 251910Z 07005KT 26/13 A2985 RMK A01 T02620132  RH  045%=      5-min Rain = 0
KMC4 251911Z 08003KT 27/13 A2985 RMK A01 T02650132  RH  044%=      5-min Rain = 0
KMC4 251912Z 07007KT 27/13 A2985 RMK A01 T02670133  RH  044%=      5-min Rain = 0
KMC4 251913Z 06007KT 27/14 A2985 RMK A01 T02660135  RH  044%=      5-min Rain = 0
KMC4 251914Z 05012KT 27/13 A2985 RMK A01 T02650134  RH  044%=      5-min Rain = 0
KMC4 251915Z 04011KT 26/13 A2985 RMK A01 T02620132  RH  044%=      5-min Rain = 0
KMC4 251916Z 02007KT 26/13 A2985 RMK A01 T02600132  RH  045%=      5-min Rain = 0
KMC4 251917Z 02008KT 26/13 A2985 RMK A01 T02590132  RH  045%=      5-min Rain = 0
KMC4 251918Z 02007KT 26/13 A2985 RMK A01 T02580132  RH  046%=      5-min Rain = 0
KMC4 251919Z 03011KT 26/13 A2985 RMK A01 T02580128  RH  045%=      5-min Rain = 0
KMC4 251920Z 04008KT 26/13 A2985 RMK A01 T02560127  RH  045%=      5-min Rain = 0
KMC4 251921Z 03009KT 26/13 A2985 RMK A01 T02600129  RH  044%=      5-min Rain = 0
KMC4 251922Z 03008KT 26/13 A2985 RMK A01 T02620128  RH  043%=      5-min Rain = 0
KMC4 251923Z 03008KT 26/13 A2985 RMK A01 T02610129  RH  044%=      5-min Rain = 0
KMC4 251924Z 04005KT 26/13 A2985 RMK A01 T02600129  RH  044%=      5-min Rain = 0
KMC4 251925Z 04007KT 26/13 A2985 RMK A01 T02610130  RH  044%=      5-min Rain = 0
KMC4 251926Z 07007KT 26/13 A2985 RMK A01 T02630132  RH  044%=      5-min Rain = 0
KMC4 251927Z 07008KT 26/13 A2985 RMK A01 T02640133  RH  044%=      5-min Rain = 0
KMC4 251928Z 08009KT 26/13 A2985 RMK A01 T02640133  RH  044%=      5-min Rain = 0
KMC4 251929Z 05012KT 26/13 A2985 RMK A01 T02640134  RH  045%=      5-min Rain = 0
KMC4 251930Z 06009G14KT 26/14 A2985 RMK A01 T02630135  RH  045%=      5-min Rain = 0
KMC4 251931Z 09011KT 26/14 A2985 RMK A01 T02630135  RH  045%=      5-min Rain = 0
KMC4 251932Z 08007KT 26/13 A2985 RMK A01 T02620134  RH  045%=      5-min Rain = 0
KMC4 251933Z 05006KT 26/13 A2985 RMK A01 T02610134  RH  046%=      5-min Rain = 0
KMC4 251934Z 06005KT 26/13 A2985 RMK A01 T02600134  RH  046%=      5-min Rain = 0
KMC4 251935Z 10005KT 26/13 A2985 RMK A01 T02600134  RH  046%=      5-min Rain = 0
KMC4 251936Z 09010KT 26/13 A2985 RMK A01 T02610132  RH  045%=      5-min Rain = 0
KMC4 251937Z 08007KT 26/13 A2985 RMK A01 T02610130  RH  044%=      5-min Rain = 0
KMC4 251938Z 07003KT 26/13 A2985 RMK A01 T02590129  RH  044%=      5-min Rain = 0
KMC4 251939Z 08003KT 26/13 A2985 RMK A01 T02610133  RH  045%=      5-min Rain = 0
KMC4 251940Z 06008KT 27/13 A2985 RMK A01 T02670133  RH  044%=      5-min Rain = 0
KMC4 251941Z 06006KT 27/13 A2985 RMK A01 T02690130  RH  042%=      5-min Rain = 0
KMC4 251942Z 12004KT 27/13 A2985 RMK A01 T02670130  RH  043%=      5-min Rain = 0
KMC4 251943Z 10004KT 27/13 A2985 RMK A01 T02660129  RH  043%=      5-min Rain = 0
KMC4 251944Z 08005KT 26/13 A2985 RMK A01 T02630129  RH  043%=      5-min Rain = 0
KMC4 251945Z 07008G13KT 26/13 A2985 RMK A01 T02610131  RH  045%=      5-min Rain = 0
KMC4 251946Z 07009KT 26/14 A2985 RMK A01 T02600138  RH  047%=      5-min Rain = 0
KMC4 251947Z 06011KT 26/14 A2985 RMK A01 T02600141  RH  048%=      5-min Rain = 0
KMC4 251948Z 06008KT 26/14 A2985 RMK A01 T02590141  RH  048%=      5-min Rain = 0
KMC4 251949Z 05007KT 26/14 A2985 RMK A01 T02570141  RH  049%=      5-min Rain = 0
KMC4 251950Z 06008KT 26/14 A2985 RMK A01 T02560140  RH  049%=      5-min Rain = 0
KMC4 251951Z 04010KT 26/14 A2985 RMK A01 T02570141  RH  049%=      5-min Rain = 0
KMC4 251952Z 02012KT 26/14 A2984 RMK A01 T02580143  RH  049%=      5-min Rain = 0
KMC4 251953Z 04013KT 26/14 A2985 RMK A01 T02580144  RH  049%=      5-min Rain = 0
KMC4 251954Z 05010KT 26/14 A2985 RMK A01 T02580144  RH  049%=      5-min Rain = 0
KMC4 251955Z 05011KT 26/14 A2985 RMK A01 T02600143  RH  049%=      5-min Rain = 0
KMC4 251956Z 05011KT 26/14 A2985 RMK A01 T02600143  RH  048%=      5-min Rain = 0
KMC4 251957Z 05013KT 26/14 A2985 RMK A01 T02590141  RH  048%=      5-min Rain = 0
KMC4 251958Z 08009KT 26/14 A2985 RMK A01 T02580140  RH  048%=      5-min Rain = 0
KMC4 251959Z 05010KT 26/14 A2985 RMK A01 T02580141  RH  049%=      5-min Rain = 0
KMC4 252000Z 04012KT 26/14 A2985 RMK A01 T02580144  RH  049%=      5-min Rain = 0
KMC4 252001Z 04013KT 26/14 A2985 RMK A01 T02590144  RH  049%=      5-min Rain = 0
KMC4 252002Z 04011KT 26/15 A2985 RMK A01 T02570146  RH  050%=      5-min Rain = 0
KMC4 252003Z 04010KT 26/15 A2985 RMK A01 T02580145  RH  050%=      5-min Rain = 0
KMC4 252004Z 04010KT 26/14 A2985 RMK A01 T02580144  RH  050%=      5-min Rain = 0
KMC4 252005Z 04013KT 26/14 A2985 RMK A01 T02570144  RH  049%=      5-min Rain = 0
KMC4 252006Z 04011KT 26/14 A2985 RMK A01 T02560143  RH  049%=      5-min Rain = 0
KMC4 252007Z 06012KT 26/14 A2985 RMK A01 T02560143  RH  050%=      5-min Rain = 0
KMC4 252008Z 04010KT 26/14 A2985 RMK A01 T02580142  RH  049%=      5-min Rain = 0
KMC4 252009Z 05008KT 26/14 A2985 RMK A01 T02570141  RH  049%=      5-min Rain = 0
KMC4 252010Z 06009G14KT 26/14 A2985 RMK A01 T02580141  RH  048%=      5-min Rain = 0
KMC4 252011Z 07010KT 26/14 A2985 RMK A01 T02590142  RH  049%=      5-min Rain = 0
KMC4 252012Z 06011G18KT 26/14 A2985 RMK A01 T02590142  RH  049%=      5-min Rain = 0
KMC4 252013Z 05011KT 26/14 A2985 RMK A01 T02600142  RH  048%=      5-min Rain = 0
KMC4 252014Z 06010KT 26/14 A2985 RMK A01 T02590140  RH  048%=      5-min Rain = 0
KMC4 252015Z 05011KT 26/14 A2985 RMK A01 T02600140  RH  048%=      5-min Rain = 0
KMC4 252016Z 07010KT 26/14 A2985 RMK A01 T02610138  RH  047%=      5-min Rain = 0
KMC4 252017Z 07007KT 26/14 A2985 RMK A01 T02610138  RH  046%=      5-min Rain = 0
KMC4 252018Z 08007G13KT 26/14 A2985 RMK A01 T02610136  RH  046%=      5-min Rain = 0
KMC4 252019Z 04012KT 26/14 A2985 RMK A01 T02640140  RH  046%=      5-min Rain = 0
KMC4 252020Z 04009KT 27/14 A2985 RMK A01 T02650140  RH  046%=      5-min Rain = 0
KMC4 252021Z 05009KT 26/14 A2985 RMK A01 T02620140  RH  047%=      5-min Rain = 0
KMC4 252022Z 04012KT 26/14 A2985 RMK A01 T02630141  RH  047%=      5-min Rain = 0
KMC4 252023Z 04012KT 27/14 A2985 RMK A01 T02660140  RH  046%=      5-min Rain = 0
KMC4 252024Z 05009KT 26/14 A2985 RMK A01 T02640138  RH  046%=      5-min Rain = 0
KMC4 252025Z 05010KT 26/14 A2985 RMK A01 T02640140  RH  046%=      5-min Rain = 0
KMC4 252026Z 05010KT 27/14 A2985 RMK A01 T02670140  RH  046%=      5-min Rain = 0
KMC4 252027Z 02011KT 27/14 A2985 RMK A01 T02700140  RH  045%=      5-min Rain = 0
KMC4 252028Z 02008KT 27/14 A2985 RMK A01 T02710139  RH  044%=      5-min Rain = 0
KMC4 252029Z 03010KT 27/14 A2985 RMK A01 T02700142  RH  045%=      5-min Rain = 0
KMC4 252030Z 04014KT 27/14 A2985 RMK A01 T02720143  RH  045%=      5-min Rain = 0
KMC4 252031Z 04012KT 27/14 A2985 RMK A01 T02720141  RH  044%=      5-min Rain = 0
KMC4 252032Z 05011G16KT 27/14 A2985 RMK A01 T02710142  RH  045%=      5-min Rain = 0
KMC4 252033Z 05010KT 27/14 A2985 RMK A01 T02690143  RH  046%=      5-min Rain = 0
KMC4 252034Z 04013KT 27/14 A2985 RMK A01 T02710143  RH  046%=      5-min Rain = 0
KMC4 252035Z 06014KT 27/14 A2985 RMK A01 T02710140  RH  045%=      5-min Rain = 0
KMC4 252036Z 06015KT 27/14 A2985 RMK A01 T02700141  RH  045%=      5-min Rain = 0
KMC4 252037Z 06014KT 27/14 A2985 RMK A01 T02680141  RH  046%=      5-min Rain = 0
KMC4 252038Z 05013KT 26/14 A2985 RMK A01 T02640141  RH  047%=      5-min Rain = 0
KMC4 252039Z 04011KT 26/14 A2985 RMK A01 T02640143  RH  047%=      5-min Rain = 0
KMC4 252040Z 06012KT 26/14 A2985 RMK A01 T02640142  RH  047%=      5-min Rain = 0
KMC4 252041Z 04014KT 27/14 A2985 RMK A01 T02650141  RH  046%=      5-min Rain = 0
KMC4 252042Z 05009KT 27/14 A2985 RMK A01 T02650142  RH  047%=      5-min Rain = 0
KMC4 252043Z 06013G19KT 27/14 A2985 RMK A01 T02670142  RH  046%=      5-min Rain = 0
KMC4 252044Z 05016KT 27/14 A2985 RMK A01 T02670143  RH  046%=      5-min Rain = 0
KMC4 252045Z 04013KT 27/14 A2985 RMK A01 T02670143  RH  046%=      5-min Rain = 0
KMC4 252046Z 05011KT 27/14 A2985 RMK A01 T02650142  RH  047%=      5-min Rain = 0
KMC4 252047Z 05011KT 26/14 A2985 RMK A01 T02620142  RH  048%=      5-min Rain = 0
KMC4 252048Z 06012KT 26/14 A2985 RMK A01 T02630142  RH  047%=      5-min Rain = 0
KMC4 252049Z 05009G14KT 26/14 A2985 RMK A01 T02630141  RH  047%=      5-min Rain = 0
KMC4 252050Z 04014KT 26/14 A2985 RMK A01 T02610141  RH  047%=      5-min Rain = 0
KMC4 252051Z 05012KT 26/14 A2985 RMK A01 T02580140  RH  048%=      5-min Rain = 0
KMC4 252052Z 05010KT 26/14 A2985 RMK A01 T02560140  RH  049%=      5-min Rain = 0
KMC4 252053Z 05008KT 25/14 A2985 RMK A01 T02540140  RH  049%=      5-min Rain = 0
KMC4 252054Z 06008G13KT 25/14 A2985 RMK A01 T02540140  RH  049%=      5-min Rain = 0
KMC4 252055Z 05009KT 26/14 A2985 RMK A01 T02570140  RH  048%=      5-min Rain = 0
KMC4 252056Z 04009KT 26/14 A2985 RMK A01 T02600142  RH  048%=      5-min Rain = 0
KMC4 252057Z 04012G17KT 26/14 A2985 RMK A01 T02620140  RH  047%=      5-min Rain = 0
KMC4 252058Z 02012KT 26/14 A2985 RMK A01 T02620139  RH  047%=      5-min Rain = 0
KMC4 252059Z 04012KT 26/14 A2986 RMK A01 T02610139  RH  047%=      5-min Rain = 0
KMC4 252100Z 02015KT 26/14 A2986 RMK A01 T02590139  RH  047%=      5-min Rain = 0
KMC4 252101Z 01013KT 26/14 A2986 RMK A01 T02570142  RH  049%=      5-min Rain = 0
KMC4 252102Z 01012G18KT 26/14 A2986 RMK A01 T02550141  RH  049%=      5-min Rain = 0
KMC4 252103Z 02012KT 25/14 A2986 RMK A01 T02530141  RH  050%=      5-min Rain = 0
KMC4 252104Z 02012KT 25/14 A2985 RMK A01 T02530141  RH  050%=      5-min Rain = 0
KMC4 252105Z 02014G19KT 25/14 A2985 RMK A01 T02530141  RH  050%=      5-min Rain = 0
KMC4 252106Z 01014KT 25/14 A2985 RMK A01 T02530140  RH  050%=      5-min Rain = 0
KMC4 252107Z 01013KT 25/14 A2985 RMK A01 T02520140  RH  050%=      5-min Rain = 0
KMC4 252108Z 01013KT 25/14 A2986 RMK A01 T02520139  RH  050%=      5-min Rain = 0
KMC4 252109Z 01010G16KT 25/14 A2986 RMK A01 T02520138  RH  049%=      5-min Rain = 0
KMC4 252110Z 02012KT 25/14 A2986 RMK A01 T02530139  RH  049%=      5-min Rain = 0
KMC4 252111Z 03014G19KT 26/14 A2986 RMK A01 T02570140  RH  048%=      5-min Rain = 0
KMC4 252112Z 04014KT 26/14 A2986 RMK A01 T02580140  RH  048%=      5-min Rain = 0
KMC4 252113Z 04014KT 26/14 A2986 RMK A01 T02600139  RH  047%=      5-min Rain = 0
KMC4 252114Z 03015KT 26/14 A2986 RMK A01 T02610139  RH  047%=      5-min Rain = 0
KMC4 252115Z 03014KT 26/14 A2986 RMK A01 T02600138  RH  047%=      5-min Rain = 0
KMC4 252116Z 03012KT 26/14 A2986 RMK A01 T02590138  RH  047%=      5-min Rain = 0
KMC4 252117Z 02013KT 26/14 A2985 RMK A01 T02620139  RH  047%=      5-min Rain = 0
KMC4 252118Z 03012KT 26/14 A2985 RMK A01 T02640139  RH  046%=      5-min Rain = 0
KMC4 252119Z 02010KT 26/14 A2986 RMK A01 T02640138  RH  046%=      5-min Rain = 0
KMC4 252120Z 04013KT 26/14 A2985 RMK A01 T02640139  RH  046%=      5-min Rain = 0
KMC4 252121Z 04013KT 27/14 A2985 RMK A01 T02650138  RH  045%=      5-min Rain = 0
KMC4 252122Z 03011KT 27/14 A2985 RMK A01 T02660137  RH  045%=      5-min Rain = 0
KMC4 252123Z 03010KT 27/14 A2985 RMK A01 T02660138  RH  045%=      5-min Rain = 0
KMC4 252124Z 03008KT 27/14 A2985 RMK A01 T02660138  RH  045%=      5-min Rain = 0
KMC4 252125Z 03010KT 27/14 A2985 RMK A01 T02680138  RH  045%=      5-min Rain = 0
KMC4 252126Z 03011KT 27/14 A2985 RMK A01 T02690135  RH  044%=      5-min Rain = 0
KMC4 252127Z 02011G16KT 27/14 A2985 RMK A01 T02670136  RH  044%=      5-min Rain = 0
KMC4 252128Z 01011KT 27/14 A2985 RMK A01 T02670135  RH  044%=      5-min Rain = 0
KMC4 252129Z 02013KT 27/14 A2985 RMK A01 T02650136  RH  045%=      5-min Rain = 0
KMC4 252130Z 06013KT 27/14 A2985 RMK A01 T02650140  RH  046%=      5-min Rain = 0
KMC4 252131Z 06015KT 27/14 A2985 RMK A01 T02660140  RH  046%=      5-min Rain = 0
KMC4 252132Z 06012KT 27/14 A2985 RMK A01 T02660141  RH  046%=      5-min Rain = 0
KMC4 252133Z 07010KT 27/14 A2985 RMK A01 T02650141  RH  047%=      5-min Rain = 0
KMC4 252134Z 05013KT 26/14 A2986 RMK A01 T02640143  RH  047%=      5-min Rain = 0
KMC4 252135Z 06012KT 26/14 A2986 RMK A01 T02620143  RH  048%=      5-min Rain = 0
KMC4 252136Z 07010KT 26/14 A2986 RMK A01 T02590143  RH  049%=      5-min Rain = 0
KMC4 252137Z 03012KT 26/14 A2986 RMK A01 T02580144  RH  049%=      5-min Rain = 0
KMC4 252138Z 04011KT 26/14 A2986 RMK A01 T02590144  RH  049%=      5-min Rain = 0
KMC4 252139Z 06014KT 26/14 A2986 RMK A01 T02600144  RH  049%=      5-min Rain = 0
KMC4 252140Z 05015KT 26/14 A2986 RMK A01 T02600144  RH  049%=      5-min Rain = 0
KMC4 252141Z 04015KT 26/14 A2986 RMK A01 T02570143  RH  049%=      5-min Rain = 0
KMC4 252142Z 04014G19KT 25/14 A2986 RMK A01 T02540143  RH  050%=      5-min Rain = 0
KMC4 252143Z 03015KT 25/14 A2986 RMK A01 T02540142  RH  050%=      5-min Rain = 0
KMC4 252144Z 04013KT 25/14 A2986 RMK A01 T02530142  RH  050%=      5-min Rain = 0
KMC4 252145Z 05010KT 25/14 A2986 RMK A01 T02530142  RH  050%=      5-min Rain = 0
KMC4 252146Z 04010KT 25/14 A2986 RMK A01 T02540142  RH  050%=      5-min Rain = 0
KMC4 252147Z 04010KT 26/14 A2986 RMK A01 T02560143  RH  050%=      5-min Rain = 0
KMC4 252148Z 05010KT 26/14 A2986 RMK A01 T02560144  RH  050%=      5-min Rain = 0
KMC4 252149Z 05010KT 26/14 A2986 RMK A01 T02560144  RH  050%=      5-min Rain = 0
KMC4 252150Z 06012KT 26/14 A2986 RMK A01 T02560143  RH  050%=      5-min Rain = 0
KMC4 252151Z 07012KT 25/14 A2986 RMK A01 T02540141  RH  049%=      5-min Rain = 0
KMC4 252152Z 07012KT 25/14 A2986 RMK A01 T02520140  RH  050%=      5-min Rain = 0
KMC4 252153Z 08012KT 25/14 A2986 RMK A01 T02520140  RH  050%=      5-min Rain = 0
KMC4 252154Z 07011KT 25/14 A2986 RMK A01 T02510139  RH  050%=      5-min Rain = 0
KMC4 252155Z 08011KT 25/14 A2986 RMK A01 T02520140  RH  050%=      5-min Rain = 0
KMC4 252156Z 06016KT 25/14 A2985 RMK A01 T02540140  RH  049%=      5-min Rain = 0
KMC4 252157Z 05014G19KT 26/14 A2985 RMK A01 T02560140  RH  049%=      5-min Rain = 0
KMC4 252158Z 05009KT 26/14 A2986 RMK A01 T02600142  RH  048%=      5-min Rain = 0
KMC4 252159Z 04008KT 26/14 A2985 RMK A01 T02630142  RH  047%=      5-min Rain = 0
KMC4 252200Z 06008KT 26/14 A2985 RMK A01 T02640143  RH  047%=      5-min Rain = 0
KMC4 252201Z 06009KT 26/14 A2985 RMK A01 T02640142  RH  047%=      5-min Rain = 0
KMC4 252202Z 07012G17KT 26/14 A2985 RMK A01 T02620142  RH  048%=      5-min Rain = 0
KMC4 252203Z 06012KT 26/14 A2985 RMK A01 T02590140  RH  048%=      5-min Rain = 0
KMC4 252204Z 06011KT 26/14 A2985 RMK A01 T02570140  RH  049%=      5-min Rain = 0
KMC4 252205Z 06009KT 26/14 A2985 RMK A01 T02570141  RH  049%=      5-min Rain = 0
KMC4 252206Z 04011KT 26/14 A2985 RMK A01 T02590140  RH  048%=      5-min Rain = 0
KMC4 252207Z 04010KT 26/14 A2985 RMK A01 T02600139  RH  047%=      5-min Rain = 0
KMC4 252208Z 02010KT 26/14 A2985 RMK A01 T02620141  RH  047%=      5-min Rain = 0
KMC4 252209Z 03014KT 26/14 A2985 RMK A01 T02640139  RH  046%=      5-min Rain = 0
KMC4 252210Z 02014KT 26/14 A2985 RMK A01 T02630138  RH  046%=      5-min Rain = 0
KMC4 252211Z 02011KT 26/14 A2985 RMK A01 T02640137  RH  046%=      5-min Rain = 0
KMC4 252212Z 05012KT 26/14 A2985 RMK A01 T02640136  RH  045%=      5-min Rain = 0
KMC4 252213Z 05010KT 26/14 A2985 RMK A01 T02640136  RH  045%=      5-min Rain = 0
KMC4 252214Z 04013KT 27/14 A2985 RMK A01 T02650136  RH  045%=      5-min Rain = 0
KMC4 252215Z 03013KT 27/14 A2985 RMK A01 T02650137  RH  045%=      5-min Rain = 0
KMC4 252216Z 04012KT 27/14 A2985 RMK A01 T02650138  RH  046%=      5-min Rain = 0
KMC4 252217Z 05008G14KT 27/14 A2985 RMK A01 T02650140  RH  046%=      5-min Rain = 0
KMC4 252218Z 06012KT 27/14 A2985 RMK A01 T02680143  RH  046%=      5-min Rain = 0
KMC4 252219Z 05013KT 27/14 A2985 RMK A01 T02690142  RH  046%=      5-min Rain = 0
KMC4 252220Z 04014KT 27/14 A2985 RMK A01 T02670142  RH  046%=      5-min Rain = 0
KMC4 252221Z 04011KT 27/14 A2985 RMK A01 T02650142  RH  047%=      5-min Rain = 0
KMC4 252222Z 05014KT 26/14 A2985 RMK A01 T02640142  RH  047%=      5-min Rain = 0
KMC4 252223Z 05011KT 26/14 A2985 RMK A01 T02630141  RH  047%=      5-min Rain = 0
KMC4 252224Z 06010KT 26/14 A2985 RMK A01 T02630141  RH  047%=      5-min Rain = 0
KMC4 252225Z 04012KT 26/14 A2985 RMK A01 T02630141  RH  047%=      5-min Rain = 0
KMC4 252226Z 04011KT 26/14 A2985 RMK A01 T02640140  RH  046%=      5-min Rain = 0
KMC4 252227Z 04012KT 27/14 A2985 RMK A01 T02660139  RH  046%=      5-min Rain = 0
KMC4 252228Z 06011KT 27/14 A2985 RMK A01 T02660138  RH  045%=      5-min Rain = 0
KMC4 252229Z 07012G17KT 27/14 A2986 RMK A01 T02660140  RH  046%=      5-min Rain = 0
KMC4 252230Z 06013KT 27/14 A2985 RMK A01 T02680138  RH  045%=      5-min Rain = 0
KMC4 252231Z 04010KT 27/14 A2986 RMK A01 T02670138  RH  045%=      5-min Rain = 0
KMC4 252232Z 03010KT 27/14 A2986 RMK A01 T02670137  RH  045%=      5-min Rain = 0
KMC4 252233Z 04011KT 27/14 A2986 RMK A01 T02660136  RH  045%=      5-min Rain = 0
KMC4 252234Z 05007KT 26/14 A2986 RMK A01 T02640135  RH  045%=      5-min Rain = 0
KMC4 252235Z 05007KT 26/14 A2986 RMK A01 T02640139  RH  046%=      5-min Rain = 0
KMC4 252236Z 04011G16KT 27/14 A2986 RMK A01 T02670141  RH  046%=      5-min Rain = 0
KMC4 252237Z 04011KT 27/14 A2986 RMK A01 T02680142  RH  046%=      5-min Rain = 0
KMC4 252238Z 06011KT 27/14 A2986 RMK A01 T02680143  RH  046%=      5-min Rain = 0
KMC4 252239Z 05014KT 27/14 A2986 RMK A01 T02670140  RH  046%=      5-min Rain = 0
KMC4 252240Z 05014KT 27/14 A2986 RMK A01 T02650139  RH  046%=      5-min Rain = 0
KMC4 252241Z 04011G16KT 26/14 A2986 RMK A01 T02620139  RH  047%=      5-min Rain = 0
KMC4 252242Z 04013KT 26/14 A2986 RMK A01 T02620139  RH  047%=      5-min Rain = 0
KMC4 252243Z 04011KT 26/14 A2986 RMK A01 T02610138  RH  047%=      5-min Rain = 0
KMC4 252244Z 04010KT 26/14 A2986 RMK A01 T02610139  RH  047%=      5-min Rain = 0
KMC4 252245Z 06010KT 26/14 A2986 RMK A01 T02600138  RH  047%=      5-min Rain = 0
KMC4 252246Z 05008KT 26/14 A2986 RMK A01 T02590138  RH  047%=      5-min Rain = 0
KMC4 252247Z 05008KT 26/14 A2986 RMK A01 T02600137  RH  047%=      5-min Rain = 0
KMC4 252248Z 03008KT 26/14 A2986 RMK A01 T02610137  RH  046%=      5-min Rain = 0
KMC4 252249Z 05007KT 26/14 A2986 RMK A01 T02610137  RH  046%=      5-min Rain = 0
KMC4 252250Z 06009KT 26/14 A2986 RMK A01 T02610138  RH  047%=      5-min Rain = 0
KMC4 252251Z 05012KT 26/14 A2986 RMK A01 T02630140  RH  047%=      5-min Rain = 0
KMC4 252252Z 07010KT 26/14 A2986 RMK A01 T02630141  RH  047%=      5-min Rain = 0
KMC4 252253Z 06013KT 26/14 A2986 RMK A01 T02630141  RH  047%=      5-min Rain = 0
KMC4 252254Z 05011KT 26/14 A2986 RMK A01 T02620141  RH  047%=      5-min Rain = 0
KMC4 252255Z 06011KT 26/14 A2986 RMK A01 T02610141  RH  047%=      5-min Rain = 0
KMC4 252256Z 06011KT 26/14 A2986 RMK A01 T02610140  RH  047%=      5-min Rain = 0
KMC4 252257Z 05010KT 26/14 A2986 RMK A01 T02610140  RH  047%=      5-min Rain = 0
KMC4 252258Z 05010KT 26/14 A2986 RMK A01 T02610139  RH  047%=      5-min Rain = 0
KMC4 252259Z 06010KT 26/14 A2986 RMK A01 T02600139  RH  047%=      5-min Rain = 0
KMC4 252300Z 06010KT 26/14 A2986 RMK A01 T02610140  RH  047%=      5-min Rain = 0
KMC4 252301Z 06010KT 27/14 A2986 RMK A01 T02650141  RH  046%=      5-min Rain = 0
KMC4 252302Z 06012KT 27/14 A2986 RMK A01 T02660140  RH  046%=      5-min Rain = 0
KMC4 252303Z 06011KT 26/14 A2986 RMK A01 T02630140  RH  046%=      5-min Rain = 0
KMC4 252304Z 05010KT 26/14 A2986 RMK A01 T02630141  RH  047%=      5-min Rain = 0
KMC4 252305Z 05010KT 27/14 A2987 RMK A01 T02650143  RH  047%=      5-min Rain = 0
KMC4 252306Z 05011KT 27/14 A2987 RMK A01 T02660142  RH  047%=      5-min Rain = 0
KMC4 252307Z 08009KT 26/14 A2987 RMK A01 T02640142  RH  047%=      5-min Rain = 0
KMC4 252308Z 08010KT 26/14 A2987 RMK A01 T02620142  RH  048%=      5-min Rain = 0
KMC4 252309Z 06010KT 26/14 A2987 RMK A01 T02620142  RH  048%=      5-min Rain = 0
KMC4 252310Z 07011KT 26/14 A2987 RMK A01 T02610141  RH  048%=      5-min Rain = 0
KMC4 252311Z 06010KT 26/14 A2987 RMK A01 T02580139  RH  048%=      5-min Rain = 0
KMC4 252312Z 05011KT 26/14 A2987 RMK A01 T02560139  RH  049%=      5-min Rain = 0
KMC4 252313Z 07009KT 25/14 A2987 RMK A01 T02540139  RH  049%=      5-min Rain = 0
KMC4 252314Z 08011KT 25/14 A2986 RMK A01 T02530140  RH  049%=      5-min Rain = 0
KMC4 252315Z 06013KT 25/14 A2986 RMK A01 T02530138  RH  049%=      5-min Rain = 0
KMC4 252316Z 04010KT 25/14 A2987 RMK A01 T02520137  RH  049%=      5-min Rain = 0
KMC4 252317Z 04009KT 25/14 A2987 RMK A01 T02530138  RH  049%=      5-min Rain = 0
KMC4 252318Z 04007KT 25/14 A2987 RMK A01 T02530137  RH  049%=      5-min Rain = 0
KMC4 252319Z 05010KT 25/14 A2987 RMK A01 T02530137  RH  049%=      5-min Rain = 0
KMC4 252320Z 04010KT 25/14 A2987 RMK A01 T02520136  RH  049%=      5-min Rain = 0
KMC4 252321Z 04009KT 25/14 A2987 RMK A01 T02510136  RH  049%=      5-min Rain = 0
KMC4 252322Z 05009KT 25/14 A2987 RMK A01 T02500137  RH  049%=      5-min Rain = 0
KMC4 252323Z 05010KT 25/14 A2987 RMK A01 T02500139  RH  050%=      5-min Rain = 0
KMC4 252324Z 06011KT 25/14 A2987 RMK A01 T02500139  RH  050%=      5-min Rain = 0
KMC4 252325Z 05010KT 25/14 A2987 RMK A01 T02500139  RH  050%=      5-min Rain = 0
KMC4 252326Z 05009KT 25/14 A2987 RMK A01 T02500138  RH  050%=      5-min Rain = 0
KMC4 252327Z 04008KT 25/14 A2987 RMK A01 T02500137  RH  049%=      5-min Rain = 0
KMC4 252328Z 03011KT 25/14 A2987 RMK A01 T02510136  RH  049%=      5-min Rain = 0
KMC4 252329Z 04011KT 25/14 A2987 RMK A01 T02510136  RH  049%=      5-min Rain = 0
KMC4 252330Z 04010KT 25/14 A2987 RMK A01 T02510136  RH  049%=      5-min Rain = 0
KMC4 252331Z 03010KT 25/14 A2987 RMK A01 T02500136  RH  049%=      5-min Rain = 0
KMC4 252332Z 03008KT 25/14 A2987 RMK A01 T02490135  RH  049%=      5-min Rain = 0
KMC4 252333Z 03008KT 25/14 A2987 RMK A01 T02490136  RH  049%=      5-min Rain = 0
KMC4 252334Z 06006KT 25/14 A2987 RMK A01 T02510136  RH  049%=      5-min Rain = 0
KMC4 252335Z 05006KT 25/14 A2987 RMK A01 T02530137  RH  048%=      5-min Rain = 0
KMC4 252336Z 04012KT 26/14 A2987 RMK A01 T02550138  RH  049%=      5-min Rain = 0
KMC4 252337Z 04011KT 25/14 A2987 RMK A01 T02540140  RH  049%=      5-min Rain = 0
KMC4 252338Z 06012KT 25/14 A2987 RMK A01 T02540141  RH  049%=      5-min Rain = 0
KMC4 252339Z 06011KT 25/14 A2987 RMK A01 T02540140  RH  049%=      5-min Rain = 0
KMC4 252340Z 06011KT 25/14 A2987 RMK A01 T02530140  RH  050%=      5-min Rain = 0
KMC4 252341Z 06010KT 25/14 A2988 RMK A01 T02530140  RH  050%=      5-min Rain = 0
KMC4 252342Z 05010KT 25/14 A2988 RMK A01 T02540140  RH  049%=      5-min Rain = 0
KMC4 252343Z 06010KT 25/14 A2987 RMK A01 T02540140  RH  049%=      5-min Rain = 0
KMC4 252344Z 05010KT 26/14 A2987 RMK A01 T02550140  RH  049%=      5-min Rain = 0
KMC4 252345Z 04010KT 25/14 A2987 RMK A01 T02540139  RH  049%=      5-min Rain = 0
KMC4 252346Z 04009KT 25/14 A2987 RMK A01 T02540140  RH  049%=      5-min Rain = 0
KMC4 252347Z 04012KT 26/14 A2987 RMK A01 T02550140  RH  049%=      5-min Rain = 0
KMC4 252348Z 04009KT 25/14 A2987 RMK A01 T02540141  RH  049%=      5-min Rain = 0
KMC4 252349Z 05009KT 25/14 A2987 RMK A01 T02540142  RH  050%=      5-min Rain = 0
KMC4 252350Z 05010KT 25/14 A2987 RMK A01 T02530141  RH  050%=      5-min Rain = 0
KMC4 252351Z 06011KT 25/14 A2987 RMK A01 T02520140  RH  050%=      5-min Rain = 0
KMC4 252352Z 06009KT 25/14 A2987 RMK A01 T02510140  RH  050%=      5-min Rain = 0
KMC4 252353Z 06010KT 25/14 A2987 RMK A01 T02500140  RH  050%=      5-min Rain = 0
KMC4 252354Z 06010KT 25/14 A2987 RMK A01 T02490140  RH  051%=      5-min Rain = 0
KMC4 252355Z 06009KT 25/14 A2987 RMK A01 T02480140  RH  051%=      5-min Rain = 0
KMC4 252356Z 05009KT 25/14 A2987 RMK A01 T02480141  RH  051%=      5-min Rain = 0
KMC4 252357Z 05009KT 25/14 A2987 RMK A01 T02480141  RH  051%=      5-min Rain = 0
KMC4 252358Z 05007KT 25/14 A2987 RMK A01 T02480142  RH  051%=      5-min Rain = 0
KMC4 252359Z 05009KT 25/14 A2987 RMK A01 T02480142  RH  052%=      5-min Rain = 0
KMC4 260000Z 07010KT 25/14 A2987 RMK A01 T02480142  RH  052%=      5-min Rain = 0
KMC4 260001Z 07008KT 25/14 A2988 RMK A01 T02470141  RH  052%=      5-min Rain = 0
KMC4 260002Z 06009KT 25/14 A2988 RMK A01 T02470142  RH  052%=      5-min Rain = 0
KMC4 260003Z 07009KT 25/14 A2988 RMK A01 T02470141  RH  052%=      5-min Rain = 0
KMC4 260004Z 07008KT 25/14 A2988 RMK A01 T02460141  RH  052%=      5-min Rain = 0
KMC4 260005Z 06008KT 25/14 A2988 RMK A01 T02460142  RH  052%=      5-min Rain = 0
KMC4 260006Z 06008KT 25/14 A2988 RMK A01 T02460143  RH  052%=      5-min Rain = 0
KMC4 260007Z 05008KT 25/14 A2988 RMK A01 T02470143  RH  052%=      5-min Rain = 0
KMC4 260008Z 07011KT 25/14 A2988 RMK A01 T02470144  RH  053%=      5-min Rain = 0
KMC4 260009Z 07009KT 25/15 A2988 RMK A01 T02470145  RH  053%=      5-min Rain = 0
KMC4 260010Z 07007KT 25/15 A2988 RMK A01 T02460146  RH  053%=      5-min Rain = 0
KMC4 260011Z 06007KT 25/15 A2988 RMK A01 T02460146  RH  054%=      5-min Rain = 0
KMC4 260012Z 06007KT 25/15 A2988 RMK A01 T02460145  RH  053%=      5-min Rain = 0
KMC4 260013Z 06007KT 25/14 A2988 RMK A01 T02460140  RH  052%=      5-min Rain = 0
KMC4 260014Z 06006KT 25/14 A2988 RMK A01 T02470141  RH  052%=      5-min Rain = 0
KMC4 260015Z 06006KT 25/14 A2988 RMK A01 T02480140  RH  051%=      5-min Rain = 0
KMC4 260016Z 06007KT 25/14 A2988 RMK A01 T02490141  RH  051%=      5-min Rain = 0
KMC4 260017Z 05009KT 25/14 A2988 RMK A01 T02490142  RH  051%=      5-min Rain = 0
KMC4 260018Z 04012KT 25/14 A2988 RMK A01 T02490142  RH  051%=      5-min Rain = 0
KMC4 260019Z 06011KT 25/14 A2988 RMK A01 T02480142  RH  052%=      5-min Rain = 0
KMC4 260020Z 05011KT 25/14 A2988 RMK A01 T02480142  RH  052%=      5-min Rain = 0
KMC4 260021Z 04012KT 25/14 A2988 RMK A01 T02480142  RH  052%=      5-min Rain = 0
KMC4 260022Z 04011KT 25/14 A2988 RMK A01 T02480142  RH  052%=      5-min Rain = 0
KMC4 260023Z 04010KT 25/14 A2989 RMK A01 T02480142  RH  052%=      5-min Rain = 0
KMC4 260024Z 05011KT 25/14 A2988 RMK A01 T02490141  RH  051%=      5-min Rain = 0
KMC4 260025Z 03011KT 25/14 A2989 RMK A01 T02490142  RH  051%=      5-min Rain = 0
KMC4 260026Z 04010KT 25/14 A2989 RMK A01 T02500142  RH  051%=      5-min Rain = 0
KMC4 260027Z 04009KT 25/14 A2989 RMK A01 T02500142  RH  051%=      5-min Rain = 0
KMC4 260028Z 05007KT 25/14 A2989 RMK A01 T02500143  RH  051%=      5-min Rain = 0
KMC4 260029Z 05008KT 25/14 A2989 RMK A01 T02500143  RH  051%=      5-min Rain = 0
KMC4 260030Z 06010KT 25/14 A2989 RMK A01 T02500143  RH  051%=      5-min Rain = 0
KMC4 260031Z 05009KT 25/14 A2989 RMK A01 T02500143  RH  051%=      5-min Rain = 0
KMC4 260032Z 04012KT 25/14 A2989 RMK A01 T02500144  RH  052%=      5-min Rain = 0
KMC4 260033Z 05009KT 25/14 A2989 RMK A01 T02500144  RH  052%=      5-min Rain = 0
KMC4 260034Z 05008KT 25/15 A2989 RMK A01 T02500145  RH  052%=      5-min Rain = 0
KMC4 260035Z 05012KT 25/14 A2989 RMK A01 T02510144  RH  051%=      5-min Rain = 0
KMC4 260036Z 05010KT 25/14 A2989 RMK A01 T02490143  RH  052%=      5-min Rain = 0
KMC4 260037Z 07010KT 25/14 A2989 RMK A01 T02480143  RH  052%=      5-min Rain = 0
KMC4 260038Z 05010KT 25/14 A2989 RMK A01 T02480143  RH  052%=      5-min Rain = 0
KMC4 260039Z 05009KT 25/14 A2989 RMK A01 T02480143  RH  052%=      5-min Rain = 0
KMC4 260040Z 05011KT 25/14 A2989 RMK A01 T02470144  RH  052%=      5-min Rain = 0
KMC4 260041Z 07008KT 25/14 A2989 RMK A01 T02470144  RH  053%=      5-min Rain = 0
KMC4 260042Z 07010KT 25/14 A2989 RMK A01 T02460144  RH  053%=      5-min Rain = 0
KMC4 260043Z 08010KT 25/14 A2989 RMK A01 T02460144  RH  053%=      5-min Rain = 0
KMC4 260044Z 08008KT 25/14 A2989 RMK A01 T02450144  RH  053%=      5-min Rain = 0
KMC4 260045Z 08010KT 25/14 A2989 RMK A01 T02450144  RH  053%=      5-min Rain = 0
KMC4 260046Z 07009KT 24/14 A2989 RMK A01 T02440143  RH  054%=      5-min Rain = 0
KMC4 260047Z 07008KT 24/14 A2989 RMK A01 T02430143  RH  054%=      5-min Rain = 0
KMC4 260048Z 07009KT 24/14 A2989 RMK A01 T02420143  RH  054%=      5-min Rain = 0
KMC4 260049Z 06010KT 24/14 A2989 RMK A01 T02420143  RH  054%=      5-min Rain = 0
KMC4 260050Z 06010KT 24/14 A2989 RMK A01 T02420143  RH  054%=      5-min Rain = 0
KMC4 260051Z 05010KT 24/14 A2989 RMK A01 T02420143  RH  054%=      5-min Rain = 0
KMC4 260052Z 05008KT 24/14 A2989 RMK A01 T02420143  RH  054%=      5-min Rain = 0
KMC4 260053Z 06007KT 24/14 A2989 RMK A01 T02420143  RH  054%=      5-min Rain = 0
KMC4 260054Z 07006KT 24/14 A2989 RMK A01 T02430144  RH  054%=      5-min Rain = 0
KMC4 260055Z 07006KT 24/14 A2989 RMK A01 T02430144  RH  054%=      5-min Rain = 0
KMC4 260056Z 07007KT 24/14 A2989 RMK A01 T02430144  RH  054%=      5-min Rain = 0
KMC4 260057Z 05008KT 24/14 A2989 RMK A01 T02430144  RH  054%=      5-min Rain = 0
KMC4 260058Z 05011KT 24/14 A2989 RMK A01 T02430143  RH  053%=      5-min Rain = 0
KMC4 260059Z 04010KT 24/14 A2989 RMK A01 T02430142  RH  053%=      5-min Rain = 0
KMC4 260100Z 05008KT 24/14 A2989 RMK A01 T02430142  RH  053%=      5-min Rain = 0
KMC4 260101Z 06009KT 24/14 A2989 RMK A01 T02420142  RH  053%=      5-min Rain = 0
KMC4 260102Z 06010KT 24/14 A2989 RMK A01 T02420142  RH  054%=      5-min Rain = 0
KMC4 260103Z 05009KT 24/14 A2989 RMK A01 T02420142  RH  054%=      5-min Rain = 0
KMC4 260104Z 06009KT 24/14 A2989 RMK A01 T02410142  RH  054%=      5-min Rain = 0
KMC4 260105Z 05009KT 24/14 A2989 RMK A01 T02410142  RH  054%=      5-min Rain = 0
KMC4 260106Z 04009KT 24/14 A2989 RMK A01 T02410142  RH  054%=      5-min Rain = 0
KMC4 260107Z 04010KT 24/14 A299 RMK A01 T02410141  RH  054%=      5-min Rain = 0
KMC4 260108Z 05007KT 24/14 A299 RMK A01 T02400141  RH  054%=      5-min Rain = 0
KMC4 260109Z 05009KT 24/14 A299 RMK A01 T02400142  RH  054%=      5-min Rain = 0
KMC4 260110Z 04008KT 24/14 A299 RMK A01 T02390142  RH  054%=      5-min Rain = 0
KMC4 260111Z 03009KT 24/14 A299 RMK A01 T02390142  RH  055%=      5-min Rain = 0
KMC4 260112Z 04010KT 24/14 A299 RMK A01 T02390142  RH  055%=      5-min Rain = 0
KMC4 260113Z 04011KT 24/14 A299 RMK A01 T02380142  RH  055%=      5-min Rain = 0
KMC4 260114Z 05010KT 24/14 A299 RMK A01 T02380141  RH  055%=      5-min Rain = 0
KMC4 260115Z 06008KT 24/14 A299 RMK A01 T02370141  RH  055%=      5-min Rain = 0
KMC4 260116Z 05008KT 24/14 A299 RMK A01 T02370141  RH  055%=      5-min Rain = 0
KMC4 260117Z 04007KT 24/14 A299 RMK A01 T02370141  RH  055%=      5-min Rain = 0
KMC4 260118Z 04009KT 24/14 A299 RMK A01 T02370141  RH  055%=      5-min Rain = 0
KMC4 260119Z 04008KT 24/14 A299 RMK A01 T02370141  RH  055%=      5-min Rain = 0
KMC4 260120Z 04008KT 24/14 A299 RMK A01 T02360140  RH  055%=      5-min Rain = 0
KMC4 260121Z 04007KT 24/14 A299 RMK A01 T02360140  RH  055%=      5-min Rain = 0
KMC4 260122Z 04006KT 24/14 A299 RMK A01 T02360140  RH  055%=      5-min Rain = 0
KMC4 260123Z 05008KT 24/14 A299 RMK A01 T02360141  RH  055%=      5-min Rain = 0
KMC4 260124Z 05008KT 24/14 A299 RMK A01 T02360140  RH  055%=      5-min Rain = 0
KMC4 260125Z 05007KT 24/14 A2991 RMK A01 T02360140  RH  055%=      5-min Rain = 0
KMC4 260126Z 04006KT 24/14 A2991 RMK A01 T02360140  RH  055%=      5-min Rain = 0
KMC4 260127Z 04007KT 24/14 A2991 RMK A01 T02360140  RH  055%=      5-min Rain = 0
KMC4 260128Z 04007KT 24/14 A2991 RMK A01 T02360140  RH  055%=      5-min Rain = 0
KMC4 260129Z 03007KT 24/14 A2991 RMK A01 T02360140  RH  055%=      5-min Rain = 0
KMC4 260130Z 04007KT 24/14 A2991 RMK A01 T02350140  RH  055%=      5-min Rain = 0
KMC4 260131Z 04006KT 24/14 A2991 RMK A01 T02350140  RH  055%=      5-min Rain = 0
KMC4 260132Z 02008KT 24/14 A2991 RMK A01 T02350140  RH  055%=      5-min Rain = 0
KMC4 260133Z 02009KT 24/14 A2991 RMK A01 T02350139  RH  055%=      5-min Rain = 0
KMC4 260134Z 03006KT 24/14 A2991 RMK A01 T02350140  RH  055%=      5-min Rain = 0
KMC4 260135Z 03008KT 24/14 A2991 RMK A01 T02350140  RH  055%=      5-min Rain = 0
KMC4 260136Z 03007KT 23/14 A2991 RMK A01 T02340139  RH  055%=      5-min Rain = 0
KMC4 260137Z 03008KT 23/14 A2991 RMK A01 T02340139  RH  055%=      5-min Rain = 0
KMC4 260138Z 03008KT 23/14 A2991 RMK A01 T02340139  RH  055%=      5-min Rain = 0
KMC4 260139Z 03008KT 23/14 A2992 RMK A01 T02340139  RH  055%=      5-min Rain = 0
KMC4 260140Z 03009KT 23/14 A2992 RMK A01 T02330139  RH  055%=      5-min Rain = 0
KMC4 260141Z 02007KT 23/14 A2992 RMK A01 T02330139  RH  055%=      5-min Rain = 0
KMC4 260142Z 03007KT 23/14 A2992 RMK A01 T02330139  RH  055%=      5-min Rain = 0
KMC4 260143Z 03008KT 23/14 A2992 RMK A01 T02330139  RH  055%=      5-min Rain = 0
KMC4 260144Z 03007KT 23/14 A2992 RMK A01 T02330139  RH  055%=      5-min Rain = 0
KMC4 260145Z 03007KT 23/14 A2992 RMK A01 T02330138  RH  055%=      5-min Rain = 0
KMC4 260146Z 03008KT 23/14 A2992 RMK A01 T02330138  RH  055%=      5-min Rain = 0
KMC4 260147Z 03008KT 23/14 A2992 RMK A01 T02330138  RH  055%=      5-min Rain = 0
KMC4 260148Z 03007KT 23/14 A2992 RMK A01 T02330139  RH  055%=      5-min Rain = 0
KMC4 260149Z 03007KT 23/14 A2992 RMK A01 T02320138  RH  055%=      5-min Rain = 0
KMC4 260150Z 03008KT 23/14 A2992 RMK A01 T02320138  RH  055%=      5-min Rain = 0
KMC4 260151Z 03009KT 23/14 A2992 RMK A01 T02320138  RH  055%=      5-min Rain = 0
KMC4 260152Z 03008KT 23/14 A2992 RMK A01 T02320138  RH  055%=      5-min Rain = 0
KMC4 260153Z 02009KT 23/14 A2992 RMK A01 T02320138  RH  055%=      5-min Rain = 0
KMC4 260154Z 03007KT 23/14 A2992 RMK A01 T02330138  RH  055%=      5-min Rain = 0
KMC4 260155Z 04006KT 23/14 A2992 RMK A01 T02320137  RH  055%=      5-min Rain = 0
KMC4 260156Z 03006KT 23/14 A2992 RMK A01 T02320137  RH  055%=      5-min Rain = 0
KMC4 260157Z 03006KT 23/14 A2992 RMK A01 T02320137  RH  055%=      5-min Rain = 0
KMC4 260158Z 03006KT 23/14 A2992 RMK A01 T02310137  RH  055%=      5-min Rain = 0
KMC4 260159Z 03007KT 23/14 A2992 RMK A01 T02310137  RH  055%=      5-min Rain = 0
KMC4 260200Z 04007KT 23/14 A2992 RMK A01 T02310138  RH  055%=      5-min Rain = 0
KMC4 260201Z 04006KT 23/14 A2992 RMK A01 T02310137  RH  055%=      5-min Rain = 0
KMC4 260202Z 04006KT 23/14 A2993 RMK A01 T02310137  RH  055%=      5-min Rain = 0
KMC4 260203Z 04006KT 23/14 A2993 RMK A01 T02310137  RH  056%=      5-min Rain = 0
KMC4 260204Z 05005KT 23/14 A2993 RMK A01 T02310137  RH  056%=      5-min Rain = 0
KMC4 260205Z 04007KT 23/14 A2993 RMK A01 T02300137  RH  056%=      5-min Rain = 0
KMC4 260206Z 05007KT 23/14 A2993 RMK A01 T02300137  RH  056%=      5-min Rain = 0
KMC4 260207Z 04006KT 23/14 A2993 RMK A01 T02300137  RH  056%=      5-min Rain = 0
KMC4 260208Z 04006KT 23/14 A2993 RMK A01 T02300137  RH  056%=      5-min Rain = 0
KMC4 260209Z 04007KT 23/14 A2993 RMK A01 T02300137  RH  056%=      5-min Rain = 0
KMC4 260210Z 04006KT 23/14 A2993 RMK A01 T02300137  RH  056%=      5-min Rain = 0
KMC4 260211Z 04005KT 23/14 A2994 RMK A01 T02300137  RH  056%=      5-min Rain = 0
KMC4 260212Z 05005KT 23/14 A2994 RMK A01 T02290137  RH  056%=      5-min Rain = 0
KMC4 260213Z 05005KT 23/14 A2994 RMK A01 T02290137  RH  056%=      5-min Rain = 0
KMC4 260214Z 05004KT 23/14 A2994 RMK A01 T02290137  RH  056%=      5-min Rain = 0
KMC4 260215Z 05004KT 23/14 A2994 RMK A01 T02290137  RH  056%=      5-min Rain = 0
KMC4 260216Z 04003KT 23/14 A2994 RMK A01 T02280137  RH  056%=      5-min Rain = 0
KMC4 260217Z 05004KT 23/14 A2994 RMK A01 T02280137  RH  057%=      5-min Rain = 0
KMC4 260218Z 05004KT 23/14 A2995 RMK A01 T02270137  RH  057%=      5-min Rain = 0
KMC4 260219Z 05004KT 23/14 A2995 RMK A01 T02270137  RH  057%=      5-min Rain = 0
KMC4 260220Z 04004KT 23/14 A2995 RMK A01 T02270137  RH  057%=      5-min Rain = 0
KMC4 260221Z 05003KT 23/14 A2995 RMK A01 T02270137  RH  057%=      5-min Rain = 0
KMC4 260222Z 04003KT 23/14 A2995 RMK A01 T02270137  RH  057%=      5-min Rain = 0
KMC4 260223Z 04004KT 23/14 A2995 RMK A01 T02270137  RH  057%=      5-min Rain = 0
KMC4 260224Z 03005KT 23/14 A2995 RMK A01 T02270137  RH  057%=      5-min Rain = 0
KMC4 260225Z 03006KT 23/14 A2995 RMK A01 T02270137  RH  057%=      5-min Rain = 0
KMC4 260226Z 03006KT 23/14 A2995 RMK A01 T02270137  RH  057%=      5-min Rain = 0
KMC4 260227Z 03004KT 23/14 A2995 RMK A01 T02270137  RH  057%=      5-min Rain = 0
KMC4 260228Z 02004KT 23/14 A2996 RMK A01 T02270137  RH  057%=      5-min Rain = 0
KMC4 260229Z 02004KT 23/14 A2996 RMK A01 T02260138  RH  057%=      5-min Rain = 0
KMC4 260230Z 02005KT 23/14 A2996 RMK A01 T02260137  RH  057%=      5-min Rain = 0
KMC4 260231Z 03005KT 23/14 A2996 RMK A01 T02260137  RH  057%=      5-min Rain = 0
KMC4 260232Z 02006KT 23/14 A2996 RMK A01 T02260137  RH  057%=      5-min Rain = 0
KMC4 260233Z 02006KT 23/14 A2996 RMK A01 T02260137  RH  057%=      5-min Rain = 0
KMC4 260234Z 01003KT 23/14 A2996 RMK A01 T02260137  RH  057%=      5-min Rain = 0
KMC4 260235Z 01005KT 23/14 A2996 RMK A01 T02260137  RH  057%=      5-min Rain = 0
KMC4 260236Z 01004KT 23/14 A2997 RMK A01 T02260136  RH  057%=      5-min Rain = 0
KMC4 260237Z 02006KT 23/14 A2997 RMK A01 T02260136  RH  057%=      5-min Rain = 0
KMC4 260238Z 02005KT 23/14 A2997 RMK A01 T02260136  RH  057%=      5-min Rain = 0
KMC4 260239Z 02006KT 23/14 A2997 RMK A01 T02260135  RH  056%=      5-min Rain = 0
KMC4 260240Z 01006KT 23/14 A2997 RMK A01 T02260135  RH  056%=      5-min Rain = 0
KMC4 260241Z 02006KT 23/13 A2997 RMK A01 T02260134  RH  056%=      5-min Rain = 0
KMC4 260242Z 02006KT 23/13 A2997 RMK A01 T02260134  RH  056%=      5-min Rain = 0
KMC4 260243Z 02005KT 23/13 A2997 RMK A01 T02270134  RH  056%=      5-min Rain = 0
KMC4 260244Z 02006KT 23/13 A2997 RMK A01 T02270134  RH  056%=      5-min Rain = 0
KMC4 260245Z 01005KT 23/13 A2997 RMK A01 T02270134  RH  056%=      5-min Rain = 0
KMC4 260246Z 03006KT 23/13 A2997 RMK A01 T02270133  RH  055%=      5-min Rain = 0
KMC4 260247Z 01005KT 23/13 A2997 RMK A01 T02270133  RH  056%=      5-min Rain = 0
KMC4 260248Z 01004KT 23/13 A2997 RMK A01 T02270134  RH  056%=      5-min Rain = 0
KMC4 260249Z 02004KT 23/13 A2997 RMK A01 T02270133  RH  055%=      5-min Rain = 0
KMC4 260250Z 02004KT 23/13 A2997 RMK A01 T02270133  RH  055%=      5-min Rain = 0
KMC4 260251Z 01004KT 23/13 A2997 RMK A01 T02270134  RH  056%=      5-min Rain = 0
KMC4 260252Z 00004KT 23/13 A2997 RMK A01 T02270134  RH  056%=      5-min Rain = 0
KMC4 260253Z 01005KT 23/13 A2997 RMK A01 T02260133  RH  055%=      5-min Rain = 0
KMC4 260254Z 01004KT 23/13 A2997 RMK A01 T02260132  RH  055%=      5-min Rain = 0
KMC4 260255Z 01004KT 23/13 A2997 RMK A01 T02260133  RH  055%=      5-min Rain = 0
KMC4 260256Z 01005KT 23/13 A2997 RMK A01 T02260132  RH  055%=      5-min Rain = 0
KMC4 260257Z 01004KT 23/13 A2998 RMK A01 T02260132  RH  055%=      5-min Rain = 0
KMC4 260258Z 00004KT 23/13 A2998 RMK A01 T02260133  RH  056%=      5-min Rain = 0
KMC4 260259Z 00003KT 23/13 A2998 RMK A01 T02250132  RH  056%=      5-min Rain = 0
KMC4 260300Z 01003KT 23/13 A2998 RMK A01 T02250132  RH  056%=      5-min Rain = 0
KMC4 260301Z 01003KT 23/13 A2998 RMK A01 T02250132  RH  056%=      5-min Rain = 0
KMC4 260302Z 00004KT 23/13 A2998 RMK A01 T02250132  RH  056%=      5-min Rain = 0
KMC4 260303Z 00004KT 23/13 A2998 RMK A01 T02250131  RH  055%=      5-min Rain = 0
KMC4 260304Z 01003KT 23/13 A2998 RMK A01 T02250131  RH  055%=      5-min Rain = 0
KMC4 260305Z 02003KT 23/13 A2998 RMK A01 T02250132  RH  056%=      5-min Rain = 0
KMC4 260306Z 02002KT 23/13 A2998 RMK A01 T02250132  RH  056%=      5-min Rain = 0
KMC4 260307Z 02002KT 22/13 A2998 RMK A01 T02240133  RH  056%=      5-min Rain = 0
KMC4 260308Z 02003KT 22/13 A2998 RMK A01 T02240132  RH  056%=      5-min Rain = 0
KMC4 260309Z 02003KT 22/13 A2998 RMK A01 T02230132  RH  056%=      5-min Rain = 0
KMC4 260310Z 03003KT 22/13 A2998 RMK A01 T02230132  RH  056%=      5-min Rain = 0
KMC4 260311Z 02002KT 22/13 A2998 RMK A01 T02230132  RH  057%=      5-min Rain = 0
KMC4 260312Z 03003KT 22/13 A2998 RMK A01 T02220132  RH  057%=      5-min Rain = 0
KMC4 260313Z 03002KT 22/13 A2998 RMK A01 T02220132  RH  057%=      5-min Rain = 0
KMC4 260314Z 01002KT 22/13 A2998 RMK A01 T02220132  RH  057%=      5-min Rain = 0
KMC4 260315Z 02002KT 22/13 A2998 RMK A01 T02220132  RH  057%=      5-min Rain = 0
KMC4 260316Z 03004KT 22/13 A2998 RMK A01 T02220132  RH  057%=      5-min Rain = 0
KMC4 260317Z 03004KT 22/13 A2998 RMK A01 T02220131  RH  057%=      5-min Rain = 0
KMC4 260318Z 03004KT 22/13 A2998 RMK A01 T02220131  RH  056%=      5-min Rain = 0
KMC4 260319Z 03005KT 22/13 A2998 RMK A01 T02220131  RH  056%=      5-min Rain = 0
KMC4 260320Z 04004KT 22/13 A2998 RMK A01 T02220131  RH  056%=      5-min Rain = 0
KMC4 260321Z 04006KT 22/13 A2998 RMK A01 T02220131  RH  056%=      5-min Rain = 0
KMC4 260322Z 04005KT 22/13 A2998 RMK A01 T02220131  RH  056%=      5-min Rain = 0
KMC4 260323Z 05004KT 22/13 A2998 RMK A01 T02220131  RH  056%=      5-min Rain = 0
KMC4 260324Z 05006KT 22/13 A2998 RMK A01 T02210131  RH  056%=      5-min Rain = 0
KMC4 260325Z 05004KT 22/13 A2998 RMK A01 T02220131  RH  056%=      5-min Rain = 0
KMC4 260326Z 06004KT 22/13 A2998 RMK A01 T02210131  RH  057%=      5-min Rain = 0
KMC4 260327Z 06004KT 22/13 A2998 RMK A01 T02210131  RH  057%=      5-min Rain = 0
KMC4 260328Z 06004KT 22/13 A2998 RMK A01 T02210131  RH  057%=      5-min Rain = 0
KMC4 260329Z 07004KT 22/13 A2998 RMK A01 T02200131  RH  057%=      5-min Rain = 0
KMC4 260330Z 07004KT 22/13 A2998 RMK A01 T02200131  RH  057%=      5-min Rain = 0
KMC4 260331Z 06007KT 22/13 A2998 RMK A01 T02200131  RH  057%=      5-min Rain = 0
KMC4 260332Z 07006KT 22/13 A2998 RMK A01 T02200131  RH  057%=      5-min Rain = 0
KMC4 260333Z 07006KT 22/13 A2998 RMK A01 T02200131  RH  057%=      5-min Rain = 0
KMC4 260334Z 06008KT 22/13 A2998 RMK A01 T02200131  RH  057%=      5-min Rain = 0
KMC4 260335Z 05009KT 22/13 A2998 RMK A01 T02210131  RH  057%=      5-min Rain = 0
KMC4 260336Z 05009KT 22/13 A2998 RMK A01 T02210131  RH  057%=      5-min Rain = 0
KMC4 260337Z 06007KT 22/13 A2999 RMK A01 T02220131  RH  057%=      5-min Rain = 0
KMC4 260338Z 06006KT 22/13 A2999 RMK A01 T02210131  RH  057%=      5-min Rain = 0
KMC4 260339Z 05006KT 22/13 A2999 RMK A01 T02210132  RH  057%=      5-min Rain = 0
KMC4 260340Z 05005KT 22/13 A2999 RMK A01 T02200132  RH  057%=      5-min Rain = 0
KMC4 260341Z 05006KT 22/13 A2999 RMK A01 T02200132  RH  057%=      5-min Rain = 0
KMC4 260342Z 05006KT 22/13 A2998 RMK A01 T02190131  RH  057%=      5-min Rain = 0
KMC4 260343Z 05006KT 22/13 A2998 RMK A01 T02190131  RH  057%=      5-min Rain = 0
KMC4 260344Z 06006KT 22/13 A2998 RMK A01 T02190131  RH  058%=      5-min Rain = 0
KMC4 260345Z 06005KT 22/13 A2998 RMK A01 T02180131  RH  058%=      5-min Rain = 0
KMC4 260346Z 05005KT 22/13 A2998 RMK A01 T02170131  RH  058%=      5-min Rain = 0
KMC4 260347Z 06006KT 22/13 A2998 RMK A01 T02170131  RH  058%=      5-min Rain = 0
KMC4 260348Z 06005KT 22/13 A2998 RMK A01 T02170131  RH  058%=      5-min Rain = 0
KMC4 260349Z 06004KT 22/13 A2998 RMK A01 T02170131  RH  058%=      5-min Rain = 0
KMC4 260350Z 07004KT 22/13 A2998 RMK A01 T02160131  RH  058%=      5-min Rain = 0
KMC4 260351Z 06006KT 22/13 A2998 RMK A01 T02160131  RH  058%=      5-min Rain = 0
KMC4 260352Z 06006KT 22/13 A2999 RMK A01 T02160131  RH  058%=      5-min Rain = 0
KMC4 260353Z 06005KT 22/13 A2999 RMK A01 T02160131  RH  058%=      5-min Rain = 0
KMC4 260354Z 07005KT 22/13 A2999 RMK A01 T02150130  RH  058%=      5-min Rain = 0
KMC4 260355Z 06005KT 22/13 A2999 RMK A01 T02150130  RH  059%=      5-min Rain = 0
KMC4 260356Z 06004KT 22/13 A2999 RMK A01 T02150130  RH  059%=      5-min Rain = 0
KMC4 260357Z 06005KT 21/13 A2999 RMK A01 T02140131  RH  059%=      5-min Rain = 0
KMC4 260358Z 06006KT 21/13 A2999 RMK A01 T02130130  RH  059%=      5-min Rain = 0
KMC4 260359Z 06005KT 21/13 A2999 RMK A01 T02130130  RH  059%=      5-min Rain = 0
KMC4 260400Z 06005KT 21/13 A2999 RMK A01 T02120130  RH  059%=      5-min Rain = 0
KMC4 260401Z 05005KT 21/13 A2999 RMK A01 T02120130  RH  059%=      5-min Rain = 0
KMC4 260402Z 05005KT 21/13 A2999 RMK A01 T02120130  RH  060%=      5-min Rain = 0
KMC4 260403Z 05005KT 21/13 A2999 RMK A01 T02110130  RH  060%=      5-min Rain = 0
KMC4 260404Z 05005KT 21/13 A2999 RMK A01 T02110130  RH  060%=      5-min Rain = 0
KMC4 260405Z 05005KT 21/13 A2999 RMK A01 T02110130  RH  060%=      5-min Rain = 0
KMC4 260406Z 06005KT 21/13 A2999 RMK A01 T02100130  RH  060%=      5-min Rain = 0
KMC4 260407Z 06006KT 21/13 A2999 RMK A01 T02100130  RH  060%=      5-min Rain = 0
KMC4 260408Z 06006KT 21/13 A2999 RMK A01 T02100130  RH  060%=      5-min Rain = 0
KMC4 260409Z 05005KT 21/13 A2999 RMK A01 T02100130  RH  060%=      5-min Rain = 0
KMC4 260410Z 05005KT 21/13 A2999 RMK A01 T02090129  RH  060%=      5-min Rain = 0
KMC4 260411Z 06005KT 21/13 A2999 RMK A01 T02090130  RH  060%=      5-min Rain = 0
KMC4 260412Z 06005KT 21/13 A2999 RMK A01 T02090130  RH  060%=      5-min Rain = 0
KMC4 260413Z 06005KT 21/13 A2999 RMK A01 T02090130  RH  061%=      5-min Rain = 0
KMC4 260414Z 05006KT 21/13 A2999 RMK A01 T02090130  RH  061%=      5-min Rain = 0
KMC4 260415Z 06006KT 21/13 A2999 RMK A01 T02090130  RH  061%=      5-min Rain = 0
KMC4 260416Z 06006KT 21/13 A2999 RMK A01 T02090129  RH  060%=      5-min Rain = 0
KMC4 260417Z 06005KT 21/13 A2999 RMK A01 T02090130  RH  060%=      5-min Rain = 0
KMC4 260418Z 06005KT 21/13 A2999 RMK A01 T02090129  RH  060%=      5-min Rain = 0
KMC4 260419Z 06005KT 21/13 A2999 RMK A01 T02090129  RH  060%=      5-min Rain = 0
KMC4 260420Z 06005KT 21/13 A2999 RMK A01 T02090129  RH  060%=      5-min Rain = 0
KMC4 260421Z 06005KT 21/13 A2999 RMK A01 T02090129  RH  060%=      5-min Rain = 0
KMC4 260422Z 06005KT 21/13 A2999 RMK A01 T02090129  RH  060%=      5-min Rain = 0
KMC4 260423Z 05005KT 21/13 A2999 RMK A01 T02090129  RH  060%=      5-min Rain = 0
KMC4 260424Z 05005KT 21/13 A2999 RMK A01 T02080129  RH  061%=      5-min Rain = 0
KMC4 260425Z 05005KT 21/13 A2999 RMK A01 T02080129  RH  061%=      5-min Rain = 0
KMC4 260426Z 05004KT 21/13 A2999 RMK A01 T02080129  RH  061%=      5-min Rain = 0
KMC4 260427Z 05004KT 21/13 A2999 RMK A01 T02080130  RH  061%=      5-min Rain = 0
KMC4 260428Z 05005KT 21/13 A2999 RMK A01 T02070129  RH  061%=      5-min Rain = 0
KMC4 260429Z 06004KT 21/13 A2999 RMK A01 T02070129  RH  061%=      5-min Rain = 0
KMC4 260430Z 05005KT 21/13 A2999 RMK A01 T02070129  RH  061%=      5-min Rain = 0
KMC4 260431Z 05005KT 21/13 A2999 RMK A01 T02070129  RH  061%=      5-min Rain = 0
KMC4 260432Z 06005KT 21/13 A2999 RMK A01 T02060129  RH  061%=      5-min Rain = 0
KMC4 260433Z 05004KT 21/13 A2999 RMK A01 T02060129  RH  061%=      5-min Rain = 0
KMC4 260434Z 05004KT 21/13 A30 RMK A01 T02060129  RH  061%=      5-min Rain = 0
KMC4 260435Z 05004KT 21/13 A30 RMK A01 T02060129  RH  061%=      5-min Rain = 0
KMC4 260436Z 05004KT 21/13 A30 RMK A01 T02060129  RH  061%=      5-min Rain = 0
KMC4 260437Z 05004KT 21/13 A30 RMK A01 T02050129  RH  061%=      5-min Rain = 0
KMC4 260438Z 05004KT 21/13 A30 RMK A01 T02050129  RH  061%=      5-min Rain = 0
KMC4 260439Z 05005KT 21/13 A30 RMK A01 T02050129  RH  062%=      5-min Rain = 0
KMC4 260440Z 04005KT 21/13 A30 RMK A01 T02050129  RH  062%=      5-min Rain = 0
KMC4 260441Z 05004KT 21/13 A30 RMK A01 T02050129  RH  062%=      5-min Rain = 0
KMC4 260442Z 05004KT 20/13 A30 RMK A01 T02040129  RH  062%=      5-min Rain = 0
KMC4 260443Z 04003KT 20/13 A30 RMK A01 T02040129  RH  062%=      5-min Rain = 0
KMC4 260444Z 04004KT 20/13 A30 RMK A01 T02030128  RH  062%=      5-min Rain = 0
KMC4 260445Z 05005KT 20/13 A30 RMK A01 T02030129  RH  062%=      5-min Rain = 0
KMC4 260446Z 04004KT 20/13 A30 RMK A01 T02030128  RH  062%=      5-min Rain = 0
KMC4 260447Z 05003KT 20/13 A30 RMK A01 T02030128  RH  062%=      5-min Rain = 0
KMC4 260448Z 05004KT 20/13 A30 RMK A01 T02030128  RH  062%=      5-min Rain = 0
KMC4 260449Z 06004KT 20/13 A30 RMK A01 T02030128  RH  062%=      5-min Rain = 0
KMC4 260450Z 07003KT 20/13 A30 RMK A01 T02030128  RH  062%=      5-min Rain = 0
KMC4 260451Z 07003KT 20/13 A30 RMK A01 T02030128  RH  062%=      5-min Rain = 0
KMC4 260452Z 06004KT 20/13 A30 RMK A01 T02030128  RH  062%=      5-min Rain = 0
KMC4 260453Z 06003KT 20/13 A30 RMK A01 T02020128  RH  062%=      5-min Rain = 0
KMC4 260454Z 05003KT 20/13 A30 RMK A01 T02020128  RH  062%=      5-min Rain = 0
KMC4 260455Z 05004KT 20/13 A30 RMK A01 T02020128  RH  063%=      5-min Rain = 0
KMC4 260456Z 05004KT 20/13 A30 RMK A01 T02010128  RH  063%=      5-min Rain = 0
KMC4 260457Z 05004KT 20/13 A30 RMK A01 T02010128  RH  063%=      5-min Rain = 0
KMC4 260458Z 05004KT 20/13 A30 RMK A01 T02010128  RH  063%=      5-min Rain = 0
KMC4 260459Z 05004KT 20/13 A30 RMK A01 T02010128  RH  063%=      5-min Rain = 0

Page generated in 0.1163 seconds.